<?xml version="1.0" encoding="UTF-8" standalone="no" ?>
<gpx xmlns="http://www.topografix.com/GPX/1/1" xmlns:xsi="http://www.w3.org/2001/XMLSchema-instance" xsi:schemaLocation="http://www.topografix.com/GPX/1/1 http://www.topografix.com/GPX/1/1/gpx.xsd" version="1.1" creator="VisuGPX - https://www.visugpx.com">
  <metadata>
    <name>L Aulp Du Seuil</name>
    <desc><![CDATA[grp_trc:[nouvelles]]]></desc>
  </metadata>
  <trk>
    <name><![CDATA[2 oct. 2021 à 10:01:51]]></name>
    <cmt><![CDATA[2 oct. 2021 à 10:01:51]]></cmt>
    <trkseg>
      <trkpt lat="45.38189" lon="6.73615">
        <ele>1657</ele>
        <time>2021-10-02T08:01:51Z</time>
      </trkpt>
      <trkpt lat="45.3821" lon="6.73604">
        <ele>1657</ele>
        <time>2021-10-02T08:01:59Z</time>
      </trkpt>
      <trkpt lat="45.38231" lon="6.73636">
        <ele>1668</ele>
        <time>2021-10-02T08:05:40Z</time>
      </trkpt>
      <trkpt lat="45.38256" lon="6.73677">
        <ele>1676</ele>
        <time>2021-10-02T08:06:28Z</time>
      </trkpt>
      <trkpt lat="45.38278" lon="6.7371">
        <ele>1684</ele>
        <time>2021-10-02T08:07:10Z</time>
      </trkpt>
      <trkpt lat="45.38296" lon="6.73745">
        <ele>1689</ele>
        <time>2021-10-02T08:07:51Z</time>
      </trkpt>
      <trkpt lat="45.38337" lon="6.73794">
        <ele>1699</ele>
        <time>2021-10-02T08:08:53Z</time>
      </trkpt>
      <trkpt lat="45.38352" lon="6.73838">
        <ele>1707</ele>
        <time>2021-10-02T08:09:40Z</time>
      </trkpt>
      <trkpt lat="45.38368" lon="6.73875">
        <ele>1715</ele>
        <time>2021-10-02T08:10:25Z</time>
      </trkpt>
      <trkpt lat="45.38381" lon="6.73916">
        <ele>1721</ele>
        <time>2021-10-02T08:11:04Z</time>
      </trkpt>
      <trkpt lat="45.38388" lon="6.73958">
        <ele>1728</ele>
        <time>2021-10-02T08:11:52Z</time>
      </trkpt>
      <trkpt lat="45.38411" lon="6.73988">
        <ele>1734</ele>
        <time>2021-10-02T08:12:28Z</time>
      </trkpt>
      <trkpt lat="45.38433" lon="6.74023">
        <ele>1740</ele>
        <time>2021-10-02T08:13:16Z</time>
      </trkpt>
      <trkpt lat="45.38445" lon="6.74039">
        <ele>1743</ele>
        <time>2021-10-02T08:13:37Z</time>
      </trkpt>
      <trkpt lat="45.38467" lon="6.74044">
        <ele>1749</ele>
        <time>2021-10-02T08:14:15Z</time>
      </trkpt>
      <trkpt lat="45.38492" lon="6.74077">
        <ele>1760</ele>
        <time>2021-10-02T08:15:24Z</time>
      </trkpt>
      <trkpt lat="45.38515" lon="6.74108">
        <ele>1769</ele>
        <time>2021-10-02T08:16:34Z</time>
      </trkpt>
      <trkpt lat="45.38538" lon="6.7414">
        <ele>1775</ele>
        <time>2021-10-02T08:17:20Z</time>
      </trkpt>
      <trkpt lat="45.38557" lon="6.74174">
        <ele>1778</ele>
        <time>2021-10-02T08:18:03Z</time>
      </trkpt>
      <trkpt lat="45.38549" lon="6.7419">
        <ele>1779</ele>
        <time>2021-10-02T08:20:28Z</time>
      </trkpt>
      <trkpt lat="45.3856" lon="6.7421">
        <ele>1782</ele>
        <time>2021-10-02T08:21:14Z</time>
      </trkpt>
      <trkpt lat="45.38592" lon="6.74269">
        <ele>1792</ele>
        <time>2021-10-02T08:22:30Z</time>
      </trkpt>
      <trkpt lat="45.3861" lon="6.74274">
        <ele>1798</ele>
        <time>2021-10-02T08:23:00Z</time>
      </trkpt>
      <trkpt lat="45.38614" lon="6.74256">
        <ele>1799</ele>
        <time>2021-10-02T08:23:15Z</time>
      </trkpt>
      <trkpt lat="45.38642" lon="6.74271">
        <ele>1810</ele>
        <time>2021-10-02T08:24:30Z</time>
      </trkpt>
      <trkpt lat="45.38656" lon="6.74314">
        <ele>1819</ele>
        <time>2021-10-02T08:25:35Z</time>
      </trkpt>
      <trkpt lat="45.38674" lon="6.74352">
        <ele>1831</ele>
        <time>2021-10-02T08:26:45Z</time>
      </trkpt>
      <trkpt lat="45.38691" lon="6.74385">
        <ele>1841</ele>
        <time>2021-10-02T08:27:51Z</time>
      </trkpt>
      <trkpt lat="45.38708" lon="6.74427">
        <ele>1856</ele>
        <time>2021-10-02T08:29:27Z</time>
      </trkpt>
      <trkpt lat="45.38717" lon="6.74467">
        <ele>1865</ele>
        <time>2021-10-02T08:30:39Z</time>
      </trkpt>
      <trkpt lat="45.38733" lon="6.74508">
        <ele>1874</ele>
        <time>2021-10-02T08:31:55Z</time>
      </trkpt>
      <trkpt lat="45.38736" lon="6.74557">
        <ele>1882</ele>
        <time>2021-10-02T08:32:52Z</time>
      </trkpt>
      <trkpt lat="45.38755" lon="6.74593">
        <ele>1895</ele>
        <time>2021-10-02T08:34:34Z</time>
      </trkpt>
      <trkpt lat="45.3876" lon="6.74632">
        <ele>1901</ele>
        <time>2021-10-02T08:35:18Z</time>
      </trkpt>
      <trkpt lat="45.38757" lon="6.74676">
        <ele>1908</ele>
        <time>2021-10-02T08:36:07Z</time>
      </trkpt>
      <trkpt lat="45.38772" lon="6.74711">
        <ele>1918</ele>
        <time>2021-10-02T08:37:26Z</time>
      </trkpt>
      <trkpt lat="45.38788" lon="6.7475">
        <ele>1925</ele>
        <time>2021-10-02T08:38:18Z</time>
      </trkpt>
      <trkpt lat="45.38791" lon="6.74795">
        <ele>1933</ele>
        <time>2021-10-02T08:39:09Z</time>
      </trkpt>
      <trkpt lat="45.38816" lon="6.74825">
        <ele>1946</ele>
        <time>2021-10-02T08:40:30Z</time>
      </trkpt>
      <trkpt lat="45.38833" lon="6.74856">
        <ele>1951</ele>
        <time>2021-10-02T08:41:13Z</time>
      </trkpt>
      <trkpt lat="45.38853" lon="6.74887">
        <ele>1961</ele>
        <time>2021-10-02T08:42:21Z</time>
      </trkpt>
      <trkpt lat="45.38857" lon="6.74957">
        <ele>1967</ele>
        <time>2021-10-02T08:43:20Z</time>
      </trkpt>
      <trkpt lat="45.38865" lon="6.75004">
        <ele>1973</ele>
        <time>2021-10-02T08:44:00Z</time>
      </trkpt>
      <trkpt lat="45.38875" lon="6.75023">
        <ele>1975</ele>
        <time>2021-10-02T08:44:23Z</time>
      </trkpt>
      <trkpt lat="45.38886" lon="6.75042">
        <ele>1980</ele>
        <time>2021-10-02T08:44:54Z</time>
      </trkpt>
      <trkpt lat="45.38894" lon="6.75061">
        <ele>1985</ele>
        <time>2021-10-02T08:45:22Z</time>
      </trkpt>
      <trkpt lat="45.38893" lon="6.7509">
        <ele>1989</ele>
        <time>2021-10-02T08:45:50Z</time>
      </trkpt>
      <trkpt lat="45.38902" lon="6.75115">
        <ele>1993</ele>
        <time>2021-10-02T08:46:20Z</time>
      </trkpt>
      <trkpt lat="45.38915" lon="6.75158">
        <ele>1997</ele>
        <time>2021-10-02T08:47:00Z</time>
      </trkpt>
      <trkpt lat="45.38934" lon="6.75211">
        <ele>2004</ele>
        <time>2021-10-02T08:48:01Z</time>
      </trkpt>
      <trkpt lat="45.38966" lon="6.75264">
        <ele>2010</ele>
        <time>2021-10-02T08:49:02Z</time>
      </trkpt>
      <trkpt lat="45.38974" lon="6.75286">
        <ele>2013</ele>
        <time>2021-10-02T08:49:23Z</time>
      </trkpt>
      <trkpt lat="45.38989" lon="6.75343">
        <ele>2013</ele>
        <time>2021-10-02T08:50:04Z</time>
      </trkpt>
      <trkpt lat="45.38986" lon="6.75365">
        <ele>2012</ele>
        <time>2021-10-02T08:50:16Z</time>
      </trkpt>
      <trkpt lat="45.38971" lon="6.75368">
        <ele>2014</ele>
        <time>2021-10-02T08:50:37Z</time>
      </trkpt>
      <trkpt lat="45.38956" lon="6.75377">
        <ele>2015</ele>
        <time>2021-10-02T08:50:51Z</time>
      </trkpt>
      <trkpt lat="45.38963" lon="6.75406">
        <ele>2017</ele>
        <time>2021-10-02T08:51:20Z</time>
      </trkpt>
      <trkpt lat="45.3898" lon="6.75427">
        <ele>2021</ele>
        <time>2021-10-02T08:51:47Z</time>
      </trkpt>
      <trkpt lat="45.38993" lon="6.75461">
        <ele>2025</ele>
        <time>2021-10-02T08:52:20Z</time>
      </trkpt>
      <trkpt lat="45.39017" lon="6.7552">
        <ele>2026</ele>
        <time>2021-10-02T08:53:07Z</time>
      </trkpt>
      <trkpt lat="45.39037" lon="6.75555">
        <ele>2029</ele>
        <time>2021-10-02T08:53:39Z</time>
      </trkpt>
      <trkpt lat="45.39053" lon="6.75592">
        <ele>2032</ele>
        <time>2021-10-02T08:54:10Z</time>
      </trkpt>
      <trkpt lat="45.3907" lon="6.75616">
        <ele>2033</ele>
        <time>2021-10-02T08:54:33Z</time>
      </trkpt>
      <trkpt lat="45.3908" lon="6.7563">
        <ele>2032</ele>
        <time>2021-10-02T08:54:46Z</time>
      </trkpt>
      <trkpt lat="45.3909" lon="6.75645">
        <ele>2033</ele>
        <time>2021-10-02T08:54:59Z</time>
      </trkpt>
      <trkpt lat="45.39101" lon="6.7566">
        <ele>2036</ele>
        <time>2021-10-02T08:55:18Z</time>
      </trkpt>
      <trkpt lat="45.39109" lon="6.75681">
        <ele>2038</ele>
        <time>2021-10-02T08:55:34Z</time>
      </trkpt>
      <trkpt lat="45.39126" lon="6.75708">
        <ele>2041</ele>
        <time>2021-10-02T08:56:05Z</time>
      </trkpt>
      <trkpt lat="45.39146" lon="6.75743">
        <ele>2044</ele>
        <time>2021-10-02T08:56:40Z</time>
      </trkpt>
      <trkpt lat="45.39155" lon="6.75761">
        <ele>2046</ele>
        <time>2021-10-02T08:56:55Z</time>
      </trkpt>
      <trkpt lat="45.39161" lon="6.75787">
        <ele>2050</ele>
        <time>2021-10-02T08:57:27Z</time>
      </trkpt>
      <trkpt lat="45.39164" lon="6.7581">
        <ele>2052</ele>
        <time>2021-10-02T08:57:43Z</time>
      </trkpt>
      <trkpt lat="45.39189" lon="6.7587">
        <ele>2052</ele>
        <time>2021-10-02T08:58:25Z</time>
      </trkpt>
      <trkpt lat="45.39198" lon="6.75886">
        <ele>2053</ele>
        <time>2021-10-02T08:58:39Z</time>
      </trkpt>
      <trkpt lat="45.39206" lon="6.75907">
        <ele>2053</ele>
        <time>2021-10-02T08:58:57Z</time>
      </trkpt>
      <trkpt lat="45.39209" lon="6.7593">
        <ele>2055</ele>
        <time>2021-10-02T08:59:15Z</time>
      </trkpt>
      <trkpt lat="45.39224" lon="6.75967">
        <ele>2056</ele>
        <time>2021-10-02T08:59:44Z</time>
      </trkpt>
      <trkpt lat="45.39231" lon="6.76008">
        <ele>2058</ele>
        <time>2021-10-02T09:00:17Z</time>
      </trkpt>
      <trkpt lat="45.39246" lon="6.76043">
        <ele>2062</ele>
        <time>2021-10-02T09:00:45Z</time>
      </trkpt>
      <trkpt lat="45.3927" lon="6.76076">
        <ele>2067</ele>
        <time>2021-10-02T09:01:32Z</time>
      </trkpt>
      <trkpt lat="45.39289" lon="6.7611">
        <ele>2071</ele>
        <time>2021-10-02T09:02:08Z</time>
      </trkpt>
      <trkpt lat="45.39317" lon="6.76147">
        <ele>2076</ele>
        <time>2021-10-02T09:02:58Z</time>
      </trkpt>
      <trkpt lat="45.3934" lon="6.76177">
        <ele>2083</ele>
        <time>2021-10-02T09:03:47Z</time>
      </trkpt>
      <trkpt lat="45.3936" lon="6.7621">
        <ele>2090</ele>
        <time>2021-10-02T09:04:35Z</time>
      </trkpt>
      <trkpt lat="45.39385" lon="6.76235">
        <ele>2096</ele>
        <time>2021-10-02T09:05:24Z</time>
      </trkpt>
      <trkpt lat="45.39412" lon="6.76257">
        <ele>2104</ele>
        <time>2021-10-02T09:06:26Z</time>
      </trkpt>
      <trkpt lat="45.39428" lon="6.763">
        <ele>2111</ele>
        <time>2021-10-02T09:07:26Z</time>
      </trkpt>
      <trkpt lat="45.39416" lon="6.76341">
        <ele>2126</ele>
        <time>2021-10-02T09:09:35Z</time>
      </trkpt>
      <trkpt lat="45.39417" lon="6.76388">
        <ele>2134</ele>
        <time>2021-10-02T09:10:56Z</time>
      </trkpt>
      <trkpt lat="45.3943" lon="6.7643">
        <ele>2142</ele>
        <time>2021-10-02T09:12:07Z</time>
      </trkpt>
      <trkpt lat="45.39449" lon="6.76464">
        <ele>2148</ele>
        <time>2021-10-02T09:12:56Z</time>
      </trkpt>
      <trkpt lat="45.3946" lon="6.76507">
        <ele>2154</ele>
        <time>2021-10-02T09:13:55Z</time>
      </trkpt>
      <trkpt lat="45.39431" lon="6.76524">
        <ele>2165</ele>
        <time>2021-10-02T09:15:21Z</time>
      </trkpt>
      <trkpt lat="45.39451" lon="6.76556">
        <ele>2172</ele>
        <time>2021-10-02T09:16:15Z</time>
      </trkpt>
      <trkpt lat="45.39457" lon="6.7659">
        <ele>2182</ele>
        <time>2021-10-02T09:18:41Z</time>
      </trkpt>
      <trkpt lat="45.39472" lon="6.76616">
        <ele>2185</ele>
        <time>2021-10-02T09:20:26Z</time>
      </trkpt>
      <trkpt lat="45.39474" lon="6.76638">
        <ele>2191</ele>
        <time>2021-10-02T09:20:59Z</time>
      </trkpt>
      <trkpt lat="45.39478" lon="6.76659">
        <ele>2197</ele>
        <time>2021-10-02T09:21:37Z</time>
      </trkpt>
      <trkpt lat="45.39491" lon="6.76674">
        <ele>2201</ele>
        <time>2021-10-02T09:22:14Z</time>
      </trkpt>
      <trkpt lat="45.39512" lon="6.76706">
        <ele>2203</ele>
        <time>2021-10-02T09:22:39Z</time>
      </trkpt>
      <trkpt lat="45.39524" lon="6.7674">
        <ele>2207</ele>
        <time>2021-10-02T09:23:10Z</time>
      </trkpt>
      <trkpt lat="45.39555" lon="6.76734">
        <ele>2217</ele>
        <time>2021-10-02T09:24:30Z</time>
      </trkpt>
      <trkpt lat="45.39585" lon="6.76741">
        <ele>2222</ele>
        <time>2021-10-02T09:25:22Z</time>
      </trkpt>
      <trkpt lat="45.39593" lon="6.76759">
        <ele>2227</ele>
        <time>2021-10-02T09:25:59Z</time>
      </trkpt>
      <trkpt lat="45.39596" lon="6.76791">
        <ele>2235</ele>
        <time>2021-10-02T09:26:47Z</time>
      </trkpt>
      <trkpt lat="45.39601" lon="6.76813">
        <ele>2235</ele>
        <time>2021-10-02T09:27:09Z</time>
      </trkpt>
      <trkpt lat="45.3961" lon="6.7683">
        <ele>2239</ele>
        <time>2021-10-02T09:27:40Z</time>
      </trkpt>
      <trkpt lat="45.39619" lon="6.76851">
        <ele>2243</ele>
        <time>2021-10-02T09:28:09Z</time>
      </trkpt>
      <trkpt lat="45.39622" lon="6.7687">
        <ele>2247</ele>
        <time>2021-10-02T09:28:34Z</time>
      </trkpt>
      <trkpt lat="45.39634" lon="6.76888">
        <ele>2249</ele>
        <time>2021-10-02T09:28:59Z</time>
      </trkpt>
      <trkpt lat="45.39636" lon="6.76914">
        <ele>2253</ele>
        <time>2021-10-02T09:29:28Z</time>
      </trkpt>
      <trkpt lat="45.3965" lon="6.76931">
        <ele>2258</ele>
        <time>2021-10-02T09:30:07Z</time>
      </trkpt>
      <trkpt lat="45.39642" lon="6.76963">
        <ele>2262</ele>
        <time>2021-10-02T09:30:42Z</time>
      </trkpt>
      <trkpt lat="45.39654" lon="6.7698">
        <ele>2265</ele>
        <time>2021-10-02T09:31:20Z</time>
      </trkpt>
      <trkpt lat="45.39659" lon="6.77001">
        <ele>2271</ele>
        <time>2021-10-02T09:32:02Z</time>
      </trkpt>
      <trkpt lat="45.39655" lon="6.77023">
        <ele>2275</ele>
        <time>2021-10-02T09:32:44Z</time>
      </trkpt>
      <trkpt lat="45.39667" lon="6.77039">
        <ele>2280</ele>
        <time>2021-10-02T09:33:20Z</time>
      </trkpt>
      <trkpt lat="45.39678" lon="6.77058">
        <ele>2283</ele>
        <time>2021-10-02T09:33:53Z</time>
      </trkpt>
      <trkpt lat="45.39682" lon="6.77078">
        <ele>2287</ele>
        <time>2021-10-02T09:34:23Z</time>
      </trkpt>
      <trkpt lat="45.39707" lon="6.7711">
        <ele>2291</ele>
        <time>2021-10-02T09:35:19Z</time>
      </trkpt>
      <trkpt lat="45.39706" lon="6.77132">
        <ele>2294</ele>
        <time>2021-10-02T09:35:43Z</time>
      </trkpt>
      <trkpt lat="45.39712" lon="6.77182">
        <ele>2301</ele>
        <time>2021-10-02T09:36:36Z</time>
      </trkpt>
      <trkpt lat="45.39704" lon="6.77241">
        <ele>2306</ele>
        <time>2021-10-02T09:37:26Z</time>
      </trkpt>
      <trkpt lat="45.39701" lon="6.77251">
        <ele>2306</ele>
        <time>2021-10-02T09:37:38Z</time>
      </trkpt>
      <trkpt lat="45.39699" lon="6.77264">
        <ele>2307</ele>
        <time>2021-10-02T09:37:51Z</time>
      </trkpt>
      <trkpt lat="45.39692" lon="6.77279">
        <ele>2308</ele>
        <time>2021-10-02T09:38:04Z</time>
      </trkpt>
      <trkpt lat="45.39695" lon="6.77288">
        <ele>2307</ele>
        <time>2021-10-02T09:38:12Z</time>
      </trkpt>
      <trkpt lat="45.39697" lon="6.77298">
        <ele>2307</ele>
        <time>2021-10-02T09:38:18Z</time>
      </trkpt>
      <trkpt lat="45.39698" lon="6.77309">
        <ele>2308</ele>
        <time>2021-10-02T09:38:24Z</time>
      </trkpt>
      <trkpt lat="45.39704" lon="6.77317">
        <ele>2308</ele>
        <time>2021-10-02T09:38:32Z</time>
      </trkpt>
      <trkpt lat="45.39707" lon="6.77327">
        <ele>2309</ele>
        <time>2021-10-02T09:38:38Z</time>
      </trkpt>
      <trkpt lat="45.39709" lon="6.7734">
        <ele>2309</ele>
        <time>2021-10-02T09:38:49Z</time>
      </trkpt>
      <trkpt lat="45.39711" lon="6.77362">
        <ele>2309</ele>
        <time>2021-10-02T09:39:02Z</time>
      </trkpt>
      <trkpt lat="45.39716" lon="6.77373">
        <ele>2310</ele>
        <time>2021-10-02T09:39:12Z</time>
      </trkpt>
      <trkpt lat="45.39717" lon="6.77383">
        <ele>2311</ele>
        <time>2021-10-02T09:39:22Z</time>
      </trkpt>
      <trkpt lat="45.39721" lon="6.77393">
        <ele>2313</ele>
        <time>2021-10-02T09:39:30Z</time>
      </trkpt>
      <trkpt lat="45.3972" lon="6.77405">
        <ele>2314</ele>
        <time>2021-10-02T09:39:44Z</time>
      </trkpt>
      <trkpt lat="45.39723" lon="6.77426">
        <ele>2315</ele>
        <time>2021-10-02T09:39:59Z</time>
      </trkpt>
      <trkpt lat="45.3972" lon="6.77436">
        <ele>2315</ele>
        <time>2021-10-02T09:40:06Z</time>
      </trkpt>
      <trkpt lat="45.39725" lon="6.7745">
        <ele>2316</ele>
        <time>2021-10-02T09:40:22Z</time>
      </trkpt>
      <trkpt lat="45.39726" lon="6.77462">
        <ele>2317</ele>
        <time>2021-10-02T09:40:30Z</time>
      </trkpt>
      <trkpt lat="45.39736" lon="6.7748">
        <ele>2318</ele>
        <time>2021-10-02T09:40:48Z</time>
      </trkpt>
      <trkpt lat="45.39751" lon="6.77494">
        <ele>2318</ele>
        <time>2021-10-02T09:41:12Z</time>
      </trkpt>
      <trkpt lat="45.39762" lon="6.77536">
        <ele>2318</ele>
        <time>2021-10-02T09:42:34Z</time>
      </trkpt>
      <trkpt lat="45.3978" lon="6.7757">
        <ele>2318</ele>
        <time>2021-10-02T09:43:05Z</time>
      </trkpt>
      <trkpt lat="45.39806" lon="6.77653">
        <ele>2317</ele>
        <time>2021-10-02T09:43:56Z</time>
      </trkpt>
      <trkpt lat="45.39832" lon="6.77729">
        <ele>2316</ele>
        <time>2021-10-02T09:44:54Z</time>
      </trkpt>
      <trkpt lat="45.39851" lon="6.7776">
        <ele>2317</ele>
        <time>2021-10-02T09:45:26Z</time>
      </trkpt>
      <trkpt lat="45.3988" lon="6.77787">
        <ele>2321</ele>
        <time>2021-10-02T09:46:14Z</time>
      </trkpt>
      <trkpt lat="45.39908" lon="6.77772">
        <ele>2327</ele>
        <time>2021-10-02T09:47:12Z</time>
      </trkpt>
      <trkpt lat="45.39936" lon="6.77773">
        <ele>2340</ele>
        <time>2021-10-02T09:48:59Z</time>
      </trkpt>
      <trkpt lat="45.39924" lon="6.77796">
        <ele>2342</ele>
        <time>2021-10-02T09:49:26Z</time>
      </trkpt>
      <trkpt lat="45.39919" lon="6.77808">
        <ele>2343</ele>
        <time>2021-10-02T09:49:38Z</time>
      </trkpt>
      <trkpt lat="45.39918" lon="6.77819">
        <ele>2344</ele>
        <time>2021-10-02T09:49:44Z</time>
      </trkpt>
      <trkpt lat="45.3992" lon="6.77841">
        <ele>2347</ele>
        <time>2021-10-02T09:50:06Z</time>
      </trkpt>
      <trkpt lat="45.39935" lon="6.77849">
        <ele>2350</ele>
        <time>2021-10-02T09:50:33Z</time>
      </trkpt>
      <trkpt lat="45.39952" lon="6.77861">
        <ele>2352</ele>
        <time>2021-10-02T09:50:52Z</time>
      </trkpt>
      <trkpt lat="45.39965" lon="6.77874">
        <ele>2355</ele>
        <time>2021-10-02T09:51:26Z</time>
      </trkpt>
      <trkpt lat="45.39961" lon="6.77938">
        <ele>2359</ele>
        <time>2021-10-02T09:52:12Z</time>
      </trkpt>
      <trkpt lat="45.39963" lon="6.77961">
        <ele>2361</ele>
        <time>2021-10-02T09:52:34Z</time>
      </trkpt>
      <trkpt lat="45.39953" lon="6.77994">
        <ele>2362</ele>
        <time>2021-10-02T09:53:05Z</time>
      </trkpt>
      <trkpt lat="45.39937" lon="6.78049">
        <ele>2365</ele>
        <time>2021-10-02T09:53:45Z</time>
      </trkpt>
      <trkpt lat="45.39932" lon="6.78071">
        <ele>2368</ele>
        <time>2021-10-02T09:54:18Z</time>
      </trkpt>
      <trkpt lat="45.39926" lon="6.78092">
        <ele>2370</ele>
        <time>2021-10-02T09:55:04Z</time>
      </trkpt>
      <trkpt lat="45.39923" lon="6.78138">
        <ele>2378</ele>
        <time>2021-10-02T09:56:03Z</time>
      </trkpt>
      <trkpt lat="45.39917" lon="6.78184">
        <ele>2385</ele>
        <time>2021-10-02T09:57:00Z</time>
      </trkpt>
      <trkpt lat="45.3992" lon="6.78227">
        <ele>2393</ele>
        <time>2021-10-02T09:58:06Z</time>
      </trkpt>
      <trkpt lat="45.39912" lon="6.78269">
        <ele>2399</ele>
        <time>2021-10-02T09:59:06Z</time>
      </trkpt>
      <trkpt lat="45.39908" lon="6.78317">
        <ele>2406</ele>
        <time>2021-10-02T10:00:13Z</time>
      </trkpt>
      <trkpt lat="45.3991" lon="6.78364">
        <ele>2415</ele>
        <time>2021-10-02T10:01:11Z</time>
      </trkpt>
      <trkpt lat="45.39906" lon="6.78405">
        <ele>2422</ele>
        <time>2021-10-02T10:02:00Z</time>
      </trkpt>
      <trkpt lat="45.39926" lon="6.78416">
        <ele>2433</ele>
        <time>2021-10-02T10:04:11Z</time>
      </trkpt>
      <trkpt lat="45.39951" lon="6.78413">
        <ele>2442</ele>
        <time>2021-10-02T10:05:39Z</time>
      </trkpt>
      <trkpt lat="45.3995" lon="6.78435">
        <ele>2446</ele>
        <time>2021-10-02T10:06:00Z</time>
      </trkpt>
      <trkpt lat="45.39944" lon="6.78456">
        <ele>2449</ele>
        <time>2021-10-02T10:06:22Z</time>
      </trkpt>
      <trkpt lat="45.39936" lon="6.78503">
        <ele>2456</ele>
        <time>2021-10-02T10:07:22Z</time>
      </trkpt>
      <trkpt lat="45.39932" lon="6.78525">
        <ele>2457</ele>
        <time>2021-10-02T10:07:52Z</time>
      </trkpt>
      <trkpt lat="45.39926" lon="6.78553">
        <ele>2460</ele>
        <time>2021-10-02T10:08:26Z</time>
      </trkpt>
      <trkpt lat="45.39922" lon="6.78586">
        <ele>2467</ele>
        <time>2021-10-02T10:09:03Z</time>
      </trkpt>
      <trkpt lat="45.3992" lon="6.78602">
        <ele>2468</ele>
        <time>2021-10-02T10:09:17Z</time>
      </trkpt>
      <trkpt lat="45.39921" lon="6.78614">
        <ele>2470</ele>
        <time>2021-10-02T10:09:31Z</time>
      </trkpt>
      <trkpt lat="45.39919" lon="6.78625">
        <ele>2471</ele>
        <time>2021-10-02T10:09:42Z</time>
      </trkpt>
      <trkpt lat="45.39912" lon="6.78633">
        <ele>2471</ele>
        <time>2021-10-02T10:09:53Z</time>
      </trkpt>
      <trkpt lat="45.39909" lon="6.7864">
        <ele>2471</ele>
        <time>2021-10-02T10:09:58Z</time>
      </trkpt>
      <trkpt lat="45.39907" lon="6.78653">
        <ele>2473</ele>
        <time>2021-10-02T10:10:11Z</time>
      </trkpt>
      <trkpt lat="45.39902" lon="6.78662">
        <ele>2474</ele>
        <time>2021-10-02T10:10:19Z</time>
      </trkpt>
      <trkpt lat="45.399" lon="6.78669">
        <ele>2475</ele>
        <time>2021-10-02T10:10:23Z</time>
      </trkpt>
      <trkpt lat="45.39894" lon="6.78677">
        <ele>2474</ele>
        <time>2021-10-02T10:10:34Z</time>
      </trkpt>
      <trkpt lat="45.39891" lon="6.78684">
        <ele>2474</ele>
        <time>2021-10-02T10:10:41Z</time>
      </trkpt>
      <trkpt lat="45.39887" lon="6.7869">
        <ele>2475</ele>
        <time>2021-10-02T10:10:46Z</time>
      </trkpt>
      <trkpt lat="45.39882" lon="6.78704">
        <ele>2475</ele>
        <time>2021-10-02T10:10:57Z</time>
      </trkpt>
      <trkpt lat="45.39885" lon="6.78716">
        <ele>2475</ele>
        <time>2021-10-02T10:11:04Z</time>
      </trkpt>
      <trkpt lat="45.39878" lon="6.78724">
        <ele>2475</ele>
        <time>2021-10-02T10:11:09Z</time>
      </trkpt>
      <trkpt lat="45.39872" lon="6.78732">
        <ele>2476</ele>
        <time>2021-10-02T10:11:20Z</time>
      </trkpt>
      <trkpt lat="45.39856" lon="6.78752">
        <ele>2476</ele>
        <time>2021-10-02T10:11:40Z</time>
      </trkpt>
      <trkpt lat="45.39852" lon="6.78768">
        <ele>2477</ele>
        <time>2021-10-02T10:11:53Z</time>
      </trkpt>
      <trkpt lat="45.39848" lon="6.78774">
        <ele>2477</ele>
        <time>2021-10-02T10:11:58Z</time>
      </trkpt>
      <trkpt lat="45.39843" lon="6.78783">
        <ele>2476</ele>
        <time>2021-10-02T10:12:06Z</time>
      </trkpt>
      <trkpt lat="45.3984" lon="6.7879">
        <ele>2478</ele>
        <time>2021-10-02T10:12:11Z</time>
      </trkpt>
      <trkpt lat="45.39823" lon="6.78796">
        <ele>2478</ele>
        <time>2021-10-02T10:12:33Z</time>
      </trkpt>
      <trkpt lat="45.39796" lon="6.78792">
        <ele>2479</ele>
        <time>2021-10-02T10:13:15Z</time>
      </trkpt>
      <trkpt lat="45.39775" lon="6.7882">
        <ele>2475</ele>
        <time>2021-10-02T10:13:39Z</time>
      </trkpt>
      <trkpt lat="45.3976" lon="6.7883">
        <ele>2477</ele>
        <time>2021-10-02T10:14:00Z</time>
      </trkpt>
      <trkpt lat="45.39754" lon="6.7885">
        <ele>2480</ele>
        <time>2021-10-02T10:14:24Z</time>
      </trkpt>
      <trkpt lat="45.39738" lon="6.78856">
        <ele>2483</ele>
        <time>2021-10-02T10:14:49Z</time>
      </trkpt>
      <trkpt lat="45.39718" lon="6.78859">
        <ele>2486</ele>
        <time>2021-10-02T10:15:12Z</time>
      </trkpt>
      <trkpt lat="45.39709" lon="6.78878">
        <ele>2488</ele>
        <time>2021-10-02T10:15:30Z</time>
      </trkpt>
      <trkpt lat="45.39702" lon="6.78881">
        <ele>2487</ele>
        <time>2021-10-02T10:15:37Z</time>
      </trkpt>
      <trkpt lat="45.39696" lon="6.78886">
        <ele>2486</ele>
        <time>2021-10-02T10:15:45Z</time>
      </trkpt>
      <trkpt lat="45.39688" lon="6.78886">
        <ele>2486</ele>
        <time>2021-10-02T10:15:54Z</time>
      </trkpt>
      <trkpt lat="45.39683" lon="6.7889">
        <ele>2484</ele>
        <time>2021-10-02T10:15:58Z</time>
      </trkpt>
      <trkpt lat="45.39677" lon="6.78889">
        <ele>2485</ele>
        <time>2021-10-02T10:16:07Z</time>
      </trkpt>
      <trkpt lat="45.39672" lon="6.78887">
        <ele>2485</ele>
        <time>2021-10-02T10:16:13Z</time>
      </trkpt>
      <trkpt lat="45.39665" lon="6.78885">
        <ele>2486</ele>
        <time>2021-10-02T10:16:20Z</time>
      </trkpt>
      <trkpt lat="45.39659" lon="6.78887">
        <ele>2486</ele>
        <time>2021-10-02T10:16:26Z</time>
      </trkpt>
      <trkpt lat="45.39646" lon="6.78886">
        <ele>2485</ele>
        <time>2021-10-02T10:16:36Z</time>
      </trkpt>
      <trkpt lat="45.39639" lon="6.78892">
        <ele>2486</ele>
        <time>2021-10-02T10:16:44Z</time>
      </trkpt>
      <trkpt lat="45.39635" lon="6.78897">
        <ele>2486</ele>
        <time>2021-10-02T10:16:50Z</time>
      </trkpt>
      <trkpt lat="45.39627" lon="6.78895">
        <ele>2489</ele>
        <time>2021-10-02T10:17:02Z</time>
      </trkpt>
      <trkpt lat="45.39621" lon="6.78896">
        <ele>2487</ele>
        <time>2021-10-02T10:17:08Z</time>
      </trkpt>
      <trkpt lat="45.39613" lon="6.78894">
        <ele>2487</ele>
        <time>2021-10-02T10:17:16Z</time>
      </trkpt>
      <trkpt lat="45.39608" lon="6.78893">
        <ele>2488</ele>
        <time>2021-10-02T10:17:21Z</time>
      </trkpt>
      <trkpt lat="45.39602" lon="6.78892">
        <ele>2487</ele>
        <time>2021-10-02T10:17:28Z</time>
      </trkpt>
      <trkpt lat="45.39589" lon="6.78896">
        <ele>2490</ele>
        <time>2021-10-02T10:17:42Z</time>
      </trkpt>
      <trkpt lat="45.3957" lon="6.78906">
        <ele>2493</ele>
        <time>2021-10-02T10:18:10Z</time>
      </trkpt>
      <trkpt lat="45.39563" lon="6.78915">
        <ele>2494</ele>
        <time>2021-10-02T10:18:23Z</time>
      </trkpt>
      <trkpt lat="45.39557" lon="6.78917">
        <ele>2495</ele>
        <time>2021-10-02T10:18:29Z</time>
      </trkpt>
      <trkpt lat="45.39551" lon="6.78919">
        <ele>2495</ele>
        <time>2021-10-02T10:18:37Z</time>
      </trkpt>
      <trkpt lat="45.39548" lon="6.78926">
        <ele>2496</ele>
        <time>2021-10-02T10:18:42Z</time>
      </trkpt>
      <trkpt lat="45.39536" lon="6.78941">
        <ele>2497</ele>
        <time>2021-10-02T10:18:59Z</time>
      </trkpt>
      <trkpt lat="45.39528" lon="6.78945">
        <ele>2497</ele>
        <time>2021-10-02T10:19:11Z</time>
      </trkpt>
      <trkpt lat="45.39523" lon="6.7895">
        <ele>2498</ele>
        <time>2021-10-02T10:19:17Z</time>
      </trkpt>
      <trkpt lat="45.39518" lon="6.78953">
        <ele>2500</ele>
        <time>2021-10-02T10:19:27Z</time>
      </trkpt>
      <trkpt lat="45.39507" lon="6.78951">
        <ele>2500</ele>
        <time>2021-10-02T10:19:39Z</time>
      </trkpt>
      <trkpt lat="45.39501" lon="6.78946">
        <ele>2500</ele>
        <time>2021-10-02T10:19:47Z</time>
      </trkpt>
      <trkpt lat="45.3949" lon="6.7894">
        <ele>2500</ele>
        <time>2021-10-02T10:20:01Z</time>
      </trkpt>
      <trkpt lat="45.39478" lon="6.7894">
        <ele>2500</ele>
        <time>2021-10-02T10:20:11Z</time>
      </trkpt>
      <trkpt lat="45.39472" lon="6.78938">
        <ele>2500</ele>
        <time>2021-10-02T10:20:15Z</time>
      </trkpt>
      <trkpt lat="45.39467" lon="6.78936">
        <ele>2500</ele>
        <time>2021-10-02T10:20:20Z</time>
      </trkpt>
      <trkpt lat="45.39454" lon="6.78933">
        <ele>2500</ele>
        <time>2021-10-02T10:20:30Z</time>
      </trkpt>
      <trkpt lat="45.39448" lon="6.78931">
        <ele>2501</ele>
        <time>2021-10-02T10:20:35Z</time>
      </trkpt>
      <trkpt lat="45.39442" lon="6.78933">
        <ele>2501</ele>
        <time>2021-10-02T10:20:41Z</time>
      </trkpt>
      <trkpt lat="45.39437" lon="6.78935">
        <ele>2500</ele>
        <time>2021-10-02T10:20:46Z</time>
      </trkpt>
      <trkpt lat="45.39431" lon="6.78934">
        <ele>2500</ele>
        <time>2021-10-02T10:20:51Z</time>
      </trkpt>
      <trkpt lat="45.39425" lon="6.78936">
        <ele>2500</ele>
        <time>2021-10-02T10:20:56Z</time>
      </trkpt>
      <trkpt lat="45.39417" lon="6.7894">
        <ele>2500</ele>
        <time>2021-10-02T10:21:04Z</time>
      </trkpt>
      <trkpt lat="45.39404" lon="6.7894">
        <ele>2501</ele>
        <time>2021-10-02T10:21:18Z</time>
      </trkpt>
      <trkpt lat="45.39399" lon="6.78941">
        <ele>2501</ele>
        <time>2021-10-02T10:21:23Z</time>
      </trkpt>
      <trkpt lat="45.39392" lon="6.78944">
        <ele>2501</ele>
        <time>2021-10-02T10:21:29Z</time>
      </trkpt>
      <trkpt lat="45.39388" lon="6.78949">
        <ele>2501</ele>
        <time>2021-10-02T10:21:35Z</time>
      </trkpt>
      <trkpt lat="45.39382" lon="6.78952">
        <ele>2502</ele>
        <time>2021-10-02T10:21:40Z</time>
      </trkpt>
      <trkpt lat="45.39378" lon="6.78958">
        <ele>2504</ele>
        <time>2021-10-02T10:21:48Z</time>
      </trkpt>
      <trkpt lat="45.39374" lon="6.78971">
        <ele>2504</ele>
        <time>2021-10-02T10:22:02Z</time>
      </trkpt>
      <trkpt lat="45.39373" lon="6.78981">
        <ele>2506</ele>
        <time>2021-10-02T10:22:16Z</time>
      </trkpt>
      <trkpt lat="45.39368" lon="6.78986">
        <ele>2507</ele>
        <time>2021-10-02T10:22:22Z</time>
      </trkpt>
      <trkpt lat="45.39366" lon="6.78994">
        <ele>2507</ele>
        <time>2021-10-02T10:22:30Z</time>
      </trkpt>
      <trkpt lat="45.39364" lon="6.79001">
        <ele>2510</ele>
        <time>2021-10-02T10:22:42Z</time>
      </trkpt>
      <trkpt lat="45.39357" lon="6.79007">
        <ele>2511</ele>
        <time>2021-10-02T10:22:56Z</time>
      </trkpt>
      <trkpt lat="45.39352" lon="6.79013">
        <ele>2512</ele>
        <time>2021-10-02T10:23:08Z</time>
      </trkpt>
      <trkpt lat="45.39347" lon="6.79024">
        <ele>2513</ele>
        <time>2021-10-02T10:23:21Z</time>
      </trkpt>
      <trkpt lat="45.39343" lon="6.79029">
        <ele>2514</ele>
        <time>2021-10-02T10:23:26Z</time>
      </trkpt>
      <trkpt lat="45.39339" lon="6.79037">
        <ele>2514</ele>
        <time>2021-10-02T10:23:44Z</time>
      </trkpt>
      <trkpt lat="45.39323" lon="6.79052">
        <ele>2515</ele>
        <time>2021-10-02T10:24:03Z</time>
      </trkpt>
      <trkpt lat="45.39317" lon="6.79057">
        <ele>2516</ele>
        <time>2021-10-02T10:24:13Z</time>
      </trkpt>
      <trkpt lat="45.3931" lon="6.79058">
        <ele>2515</ele>
        <time>2021-10-02T10:24:19Z</time>
      </trkpt>
      <trkpt lat="45.39303" lon="6.79059">
        <ele>2517</ele>
        <time>2021-10-02T10:24:27Z</time>
      </trkpt>
      <trkpt lat="45.39298" lon="6.7906">
        <ele>2516</ele>
        <time>2021-10-02T10:24:33Z</time>
      </trkpt>
      <trkpt lat="45.39292" lon="6.79065">
        <ele>2517</ele>
        <time>2021-10-02T10:24:40Z</time>
      </trkpt>
      <trkpt lat="45.39288" lon="6.79071">
        <ele>2517</ele>
        <time>2021-10-02T10:24:46Z</time>
      </trkpt>
      <trkpt lat="45.39282" lon="6.79073">
        <ele>2518</ele>
        <time>2021-10-02T10:24:51Z</time>
      </trkpt>
      <trkpt lat="45.39274" lon="6.79076">
        <ele>2518</ele>
        <time>2021-10-02T10:24:59Z</time>
      </trkpt>
      <trkpt lat="45.39267" lon="6.7908">
        <ele>2518</ele>
        <time>2021-10-02T10:25:08Z</time>
      </trkpt>
      <trkpt lat="45.39262" lon="6.79081">
        <ele>2518</ele>
        <time>2021-10-02T10:25:14Z</time>
      </trkpt>
      <trkpt lat="45.39251" lon="6.79086">
        <ele>2518</ele>
        <time>2021-10-02T10:25:24Z</time>
      </trkpt>
      <trkpt lat="45.39245" lon="6.79087">
        <ele>2518</ele>
        <time>2021-10-02T10:25:28Z</time>
      </trkpt>
      <trkpt lat="45.3924" lon="6.79092">
        <ele>2518</ele>
        <time>2021-10-02T10:25:32Z</time>
      </trkpt>
      <trkpt lat="45.39236" lon="6.79097">
        <ele>2518</ele>
        <time>2021-10-02T10:25:37Z</time>
      </trkpt>
      <trkpt lat="45.39232" lon="6.79102">
        <ele>2518</ele>
        <time>2021-10-02T10:25:42Z</time>
      </trkpt>
      <trkpt lat="45.39227" lon="6.79107">
        <ele>2518</ele>
        <time>2021-10-02T10:25:50Z</time>
      </trkpt>
      <trkpt lat="45.39221" lon="6.7911">
        <ele>2519</ele>
        <time>2021-10-02T10:25:56Z</time>
      </trkpt>
      <trkpt lat="45.39211" lon="6.79109">
        <ele>2520</ele>
        <time>2021-10-02T10:26:07Z</time>
      </trkpt>
      <trkpt lat="45.39202" lon="6.79107">
        <ele>2521</ele>
        <time>2021-10-02T10:26:19Z</time>
      </trkpt>
      <trkpt lat="45.39196" lon="6.79107">
        <ele>2520</ele>
        <time>2021-10-02T10:26:26Z</time>
      </trkpt>
      <trkpt lat="45.3919" lon="6.79096">
        <ele>2519</ele>
        <time>2021-10-02T10:26:42Z</time>
      </trkpt>
      <trkpt lat="45.39191" lon="6.79081">
        <ele>2517</ele>
        <time>2021-10-02T10:26:55Z</time>
      </trkpt>
      <trkpt lat="45.39191" lon="6.79081">
        <ele>2518</ele>
        <time>2021-10-02T10:30:47Z</time>
      </trkpt>
      <trkpt lat="45.39175" lon="6.79068">
        <ele>2519</ele>
        <time>2021-10-02T10:31:20Z</time>
      </trkpt>
      <trkpt lat="45.39169" lon="6.79071">
        <ele>2518</ele>
        <time>2021-10-02T10:31:25Z</time>
      </trkpt>
      <trkpt lat="45.39164" lon="6.79067">
        <ele>2517</ele>
        <time>2021-10-02T10:31:47Z</time>
      </trkpt>
      <trkpt lat="45.39165" lon="6.7907">
        <ele>2512</ele>
        <time>2021-10-02T10:48:33Z</time>
      </trkpt>
      <trkpt lat="45.39166" lon="6.79075">
        <ele>2512</ele>
        <time>2021-10-02T10:50:27Z</time>
      </trkpt>
      <trkpt lat="45.3917" lon="6.79068">
        <ele>2512</ele>
        <time>2021-10-02T11:05:27Z</time>
      </trkpt>
      <trkpt lat="45.39173" lon="6.79061">
        <ele>2512</ele>
        <time>2021-10-02T11:05:57Z</time>
      </trkpt>
      <trkpt lat="45.3917" lon="6.7905">
        <ele>2511</ele>
        <time>2021-10-02T11:06:06Z</time>
      </trkpt>
      <trkpt lat="45.39173" lon="6.79042">
        <ele>2510</ele>
        <time>2021-10-02T11:06:10Z</time>
      </trkpt>
      <trkpt lat="45.39173" lon="6.79033">
        <ele>2510</ele>
        <time>2021-10-02T11:06:15Z</time>
      </trkpt>
      <trkpt lat="45.39171" lon="6.79026">
        <ele>2509</ele>
        <time>2021-10-02T11:06:19Z</time>
      </trkpt>
      <trkpt lat="45.39165" lon="6.79011">
        <ele>2509</ele>
        <time>2021-10-02T11:06:27Z</time>
      </trkpt>
      <trkpt lat="45.3916" lon="6.79006">
        <ele>2509</ele>
        <time>2021-10-02T11:06:32Z</time>
      </trkpt>
      <trkpt lat="45.39155" lon="6.79002">
        <ele>2509</ele>
        <time>2021-10-02T11:06:36Z</time>
      </trkpt>
      <trkpt lat="45.39145" lon="6.78993">
        <ele>2508</ele>
        <time>2021-10-02T11:06:46Z</time>
      </trkpt>
      <trkpt lat="45.3914" lon="6.78989">
        <ele>2509</ele>
        <time>2021-10-02T11:06:51Z</time>
      </trkpt>
      <trkpt lat="45.3913" lon="6.7898">
        <ele>2508</ele>
        <time>2021-10-02T11:07:01Z</time>
      </trkpt>
      <trkpt lat="45.39125" lon="6.78975">
        <ele>2507</ele>
        <time>2021-10-02T11:07:05Z</time>
      </trkpt>
      <trkpt lat="45.39115" lon="6.78966">
        <ele>2508</ele>
        <time>2021-10-02T11:07:15Z</time>
      </trkpt>
      <trkpt lat="45.39112" lon="6.78959">
        <ele>2508</ele>
        <time>2021-10-02T11:07:20Z</time>
      </trkpt>
      <trkpt lat="45.39103" lon="6.78955">
        <ele>2508</ele>
        <time>2021-10-02T11:07:28Z</time>
      </trkpt>
      <trkpt lat="45.39091" lon="6.78943">
        <ele>2509</ele>
        <time>2021-10-02T11:07:43Z</time>
      </trkpt>
      <trkpt lat="45.39086" lon="6.7894">
        <ele>2510</ele>
        <time>2021-10-02T11:07:49Z</time>
      </trkpt>
      <trkpt lat="45.39083" lon="6.78932">
        <ele>2509</ele>
        <time>2021-10-02T11:07:54Z</time>
      </trkpt>
      <trkpt lat="45.39079" lon="6.78925">
        <ele>2510</ele>
        <time>2021-10-02T11:07:59Z</time>
      </trkpt>
      <trkpt lat="45.39074" lon="6.78921">
        <ele>2510</ele>
        <time>2021-10-02T11:08:04Z</time>
      </trkpt>
      <trkpt lat="45.39068" lon="6.78913">
        <ele>2510</ele>
        <time>2021-10-02T11:08:14Z</time>
      </trkpt>
      <trkpt lat="45.39065" lon="6.78907">
        <ele>2512</ele>
        <time>2021-10-02T11:08:21Z</time>
      </trkpt>
      <trkpt lat="45.39058" lon="6.78884">
        <ele>2511</ele>
        <time>2021-10-02T11:08:39Z</time>
      </trkpt>
      <trkpt lat="45.39055" lon="6.78866">
        <ele>2511</ele>
        <time>2021-10-02T11:08:50Z</time>
      </trkpt>
      <trkpt lat="45.39052" lon="6.78857">
        <ele>2511</ele>
        <time>2021-10-02T11:08:54Z</time>
      </trkpt>
      <trkpt lat="45.39048" lon="6.78842">
        <ele>2512</ele>
        <time>2021-10-02T11:09:04Z</time>
      </trkpt>
      <trkpt lat="45.39038" lon="6.78843">
        <ele>2513</ele>
        <time>2021-10-02T11:09:13Z</time>
      </trkpt>
      <trkpt lat="45.3903" lon="6.78839">
        <ele>2513</ele>
        <time>2021-10-02T11:09:22Z</time>
      </trkpt>
      <trkpt lat="45.39023" lon="6.78836">
        <ele>2513</ele>
        <time>2021-10-02T11:09:32Z</time>
      </trkpt>
      <trkpt lat="45.39016" lon="6.78841">
        <ele>2516</ele>
        <time>2021-10-02T11:09:44Z</time>
      </trkpt>
      <trkpt lat="45.39012" lon="6.78846">
        <ele>2518</ele>
        <time>2021-10-02T11:09:56Z</time>
      </trkpt>
      <trkpt lat="45.39006" lon="6.78843">
        <ele>2518</ele>
        <time>2021-10-02T11:10:03Z</time>
      </trkpt>
      <trkpt lat="45.38997" lon="6.78843">
        <ele>2520</ele>
        <time>2021-10-02T11:10:14Z</time>
      </trkpt>
      <trkpt lat="45.3899" lon="6.78845">
        <ele>2520</ele>
        <time>2021-10-02T11:10:23Z</time>
      </trkpt>
      <trkpt lat="45.38981" lon="6.78842">
        <ele>2520</ele>
        <time>2021-10-02T11:10:35Z</time>
      </trkpt>
      <trkpt lat="45.38979" lon="6.78852">
        <ele>2521</ele>
        <time>2021-10-02T11:10:51Z</time>
      </trkpt>
      <trkpt lat="45.38975" lon="6.78871">
        <ele>2523</ele>
        <time>2021-10-02T11:11:12Z</time>
      </trkpt>
      <trkpt lat="45.38957" lon="6.7888">
        <ele>2517</ele>
        <time>2021-10-02T11:11:34Z</time>
      </trkpt>
      <trkpt lat="45.38951" lon="6.78876">
        <ele>2518</ele>
        <time>2021-10-02T11:11:39Z</time>
      </trkpt>
      <trkpt lat="45.38946" lon="6.78874">
        <ele>2518</ele>
        <time>2021-10-02T11:11:45Z</time>
      </trkpt>
      <trkpt lat="45.38938" lon="6.78866">
        <ele>2516</ele>
        <time>2021-10-02T11:11:58Z</time>
      </trkpt>
      <trkpt lat="45.38932" lon="6.78864">
        <ele>2516</ele>
        <time>2021-10-02T11:12:03Z</time>
      </trkpt>
      <trkpt lat="45.38927" lon="6.78859">
        <ele>2515</ele>
        <time>2021-10-02T11:12:08Z</time>
      </trkpt>
      <trkpt lat="45.38918" lon="6.78855">
        <ele>2514</ele>
        <time>2021-10-02T11:12:19Z</time>
      </trkpt>
      <trkpt lat="45.38912" lon="6.78866">
        <ele>2513</ele>
        <time>2021-10-02T11:12:30Z</time>
      </trkpt>
      <trkpt lat="45.38907" lon="6.7887">
        <ele>2513</ele>
        <time>2021-10-02T11:12:39Z</time>
      </trkpt>
      <trkpt lat="45.38904" lon="6.78863">
        <ele>2512</ele>
        <time>2021-10-02T11:12:45Z</time>
      </trkpt>
      <trkpt lat="45.38898" lon="6.78859">
        <ele>2511</ele>
        <time>2021-10-02T11:12:50Z</time>
      </trkpt>
      <trkpt lat="45.38894" lon="6.78862">
        <ele>2510</ele>
        <time>2021-10-02T11:12:58Z</time>
      </trkpt>
      <trkpt lat="45.38886" lon="6.78865">
        <ele>2509</ele>
        <time>2021-10-02T11:13:08Z</time>
      </trkpt>
      <trkpt lat="45.3888" lon="6.7887">
        <ele>2510</ele>
        <time>2021-10-02T11:13:16Z</time>
      </trkpt>
      <trkpt lat="45.38876" lon="6.78876">
        <ele>2511</ele>
        <time>2021-10-02T11:13:22Z</time>
      </trkpt>
      <trkpt lat="45.38872" lon="6.78882">
        <ele>2510</ele>
        <time>2021-10-02T11:13:27Z</time>
      </trkpt>
      <trkpt lat="45.38867" lon="6.78891">
        <ele>2511</ele>
        <time>2021-10-02T11:13:38Z</time>
      </trkpt>
      <trkpt lat="45.38862" lon="6.78897">
        <ele>2513</ele>
        <time>2021-10-02T11:13:43Z</time>
      </trkpt>
      <trkpt lat="45.38857" lon="6.78898">
        <ele>2512</ele>
        <time>2021-10-02T11:13:50Z</time>
      </trkpt>
      <trkpt lat="45.38848" lon="6.78904">
        <ele>2514</ele>
        <time>2021-10-02T11:14:03Z</time>
      </trkpt>
      <trkpt lat="45.38843" lon="6.7891">
        <ele>2513</ele>
        <time>2021-10-02T11:14:08Z</time>
      </trkpt>
      <trkpt lat="45.38838" lon="6.78914">
        <ele>2514</ele>
        <time>2021-10-02T11:14:14Z</time>
      </trkpt>
      <trkpt lat="45.38834" lon="6.78921">
        <ele>2514</ele>
        <time>2021-10-02T11:14:19Z</time>
      </trkpt>
      <trkpt lat="45.38822" lon="6.78925">
        <ele>2515</ele>
        <time>2021-10-02T11:14:33Z</time>
      </trkpt>
      <trkpt lat="45.38815" lon="6.7893">
        <ele>2516</ele>
        <time>2021-10-02T11:14:41Z</time>
      </trkpt>
      <trkpt lat="45.38809" lon="6.7893">
        <ele>2515</ele>
        <time>2021-10-02T11:14:49Z</time>
      </trkpt>
      <trkpt lat="45.38796" lon="6.78935">
        <ele>2519</ele>
        <time>2021-10-02T11:15:05Z</time>
      </trkpt>
      <trkpt lat="45.38787" lon="6.78942">
        <ele>2519</ele>
        <time>2021-10-02T11:15:17Z</time>
      </trkpt>
      <trkpt lat="45.38781" lon="6.7895">
        <ele>2522</ele>
        <time>2021-10-02T11:15:28Z</time>
      </trkpt>
      <trkpt lat="45.38776" lon="6.78954">
        <ele>2523</ele>
        <time>2021-10-02T11:15:46Z</time>
      </trkpt>
      <trkpt lat="45.38773" lon="6.78962">
        <ele>2525</ele>
        <time>2021-10-02T11:15:57Z</time>
      </trkpt>
      <trkpt lat="45.38768" lon="6.78957">
        <ele>2527</ele>
        <time>2021-10-02T11:16:21Z</time>
      </trkpt>
      <trkpt lat="45.3876" lon="6.78943">
        <ele>2528</ele>
        <time>2021-10-02T11:16:45Z</time>
      </trkpt>
      <trkpt lat="45.38757" lon="6.78933">
        <ele>2528</ele>
        <time>2021-10-02T11:16:54Z</time>
      </trkpt>
      <trkpt lat="45.38758" lon="6.78925">
        <ele>2529</ele>
        <time>2021-10-02T11:17:00Z</time>
      </trkpt>
      <trkpt lat="45.3875" lon="6.78929">
        <ele>2531</ele>
        <time>2021-10-02T11:17:15Z</time>
      </trkpt>
      <trkpt lat="45.38742" lon="6.7893">
        <ele>2534</ele>
        <time>2021-10-02T11:17:27Z</time>
      </trkpt>
      <trkpt lat="45.3874" lon="6.78918">
        <ele>2534</ele>
        <time>2021-10-02T11:17:38Z</time>
      </trkpt>
      <trkpt lat="45.3874" lon="6.78907">
        <ele>2534</ele>
        <time>2021-10-02T11:17:49Z</time>
      </trkpt>
      <trkpt lat="45.3874" lon="6.78896">
        <ele>2536</ele>
        <time>2021-10-02T11:18:01Z</time>
      </trkpt>
      <trkpt lat="45.3874" lon="6.78886">
        <ele>2535</ele>
        <time>2021-10-02T11:18:13Z</time>
      </trkpt>
      <trkpt lat="45.38734" lon="6.78887">
        <ele>2538</ele>
        <time>2021-10-02T11:18:26Z</time>
      </trkpt>
      <trkpt lat="45.38728" lon="6.78886">
        <ele>2541</ele>
        <time>2021-10-02T11:18:50Z</time>
      </trkpt>
      <trkpt lat="45.38722" lon="6.78891">
        <ele>2543</ele>
        <time>2021-10-02T11:19:02Z</time>
      </trkpt>
      <trkpt lat="45.38716" lon="6.78899">
        <ele>2544</ele>
        <time>2021-10-02T11:19:20Z</time>
      </trkpt>
      <trkpt lat="45.38715" lon="6.78906">
        <ele>2545</ele>
        <time>2021-10-02T11:19:26Z</time>
      </trkpt>
      <trkpt lat="45.38703" lon="6.78933">
        <ele>2549</ele>
        <time>2021-10-02T11:19:59Z</time>
      </trkpt>
      <trkpt lat="45.38691" lon="6.78945">
        <ele>2555</ele>
        <time>2021-10-02T11:20:40Z</time>
      </trkpt>
      <trkpt lat="45.38677" lon="6.7896">
        <ele>2563</ele>
        <time>2021-10-02T11:21:26Z</time>
      </trkpt>
      <trkpt lat="45.3867" lon="6.78977">
        <ele>2565</ele>
        <time>2021-10-02T11:21:56Z</time>
      </trkpt>
      <trkpt lat="45.38659" lon="6.78974">
        <ele>2570</ele>
        <time>2021-10-02T11:22:31Z</time>
      </trkpt>
      <trkpt lat="45.38653" lon="6.78969">
        <ele>2572</ele>
        <time>2021-10-02T11:22:55Z</time>
      </trkpt>
      <trkpt lat="45.38647" lon="6.78962">
        <ele>2570</ele>
        <time>2021-10-02T11:23:07Z</time>
      </trkpt>
      <trkpt lat="45.38641" lon="6.78964">
        <ele>2574</ele>
        <time>2021-10-02T11:23:19Z</time>
      </trkpt>
      <trkpt lat="45.38634" lon="6.78964">
        <ele>2576</ele>
        <time>2021-10-02T11:24:21Z</time>
      </trkpt>
      <trkpt lat="45.38632" lon="6.78952">
        <ele>2578</ele>
        <time>2021-10-02T11:24:39Z</time>
      </trkpt>
      <trkpt lat="45.38625" lon="6.78958">
        <ele>2580</ele>
        <time>2021-10-02T11:24:51Z</time>
      </trkpt>
      <trkpt lat="45.38614" lon="6.78988">
        <ele>2584</ele>
        <time>2021-10-02T11:25:28Z</time>
      </trkpt>
      <trkpt lat="45.38606" lon="6.79005">
        <ele>2585</ele>
        <time>2021-10-02T11:25:52Z</time>
      </trkpt>
      <trkpt lat="45.38592" lon="6.79">
        <ele>2593</ele>
        <time>2021-10-02T11:26:40Z</time>
      </trkpt>
      <trkpt lat="45.38584" lon="6.79001">
        <ele>2595</ele>
        <time>2021-10-02T11:26:53Z</time>
      </trkpt>
      <trkpt lat="45.38579" lon="6.79001">
        <ele>2595</ele>
        <time>2021-10-02T11:27:05Z</time>
      </trkpt>
      <trkpt lat="45.38576" lon="6.7901">
        <ele>2598</ele>
        <time>2021-10-02T11:27:29Z</time>
      </trkpt>
      <trkpt lat="45.38573" lon="6.79016">
        <ele>2600</ele>
        <time>2021-10-02T11:27:41Z</time>
      </trkpt>
      <trkpt lat="45.38568" lon="6.79023">
        <ele>2601</ele>
        <time>2021-10-02T11:27:56Z</time>
      </trkpt>
      <trkpt lat="45.38567" lon="6.79031">
        <ele>2601</ele>
        <time>2021-10-02T11:28:07Z</time>
      </trkpt>
      <trkpt lat="45.38567" lon="6.79038">
        <ele>2602</ele>
        <time>2021-10-02T11:28:22Z</time>
      </trkpt>
      <trkpt lat="45.38564" lon="6.79044">
        <ele>2606</ele>
        <time>2021-10-02T11:28:44Z</time>
      </trkpt>
      <trkpt lat="45.38557" lon="6.79037">
        <ele>2611</ele>
        <time>2021-10-02T11:29:04Z</time>
      </trkpt>
      <trkpt lat="45.38552" lon="6.79046">
        <ele>2611</ele>
        <time>2021-10-02T11:29:27Z</time>
      </trkpt>
      <trkpt lat="45.38553" lon="6.79057">
        <ele>2615</ele>
        <time>2021-10-02T11:29:45Z</time>
      </trkpt>
      <trkpt lat="45.38546" lon="6.7906">
        <ele>2618</ele>
        <time>2021-10-02T11:30:16Z</time>
      </trkpt>
      <trkpt lat="45.3854" lon="6.79064">
        <ele>2619</ele>
        <time>2021-10-02T11:30:41Z</time>
      </trkpt>
      <trkpt lat="45.38538" lon="6.79074">
        <ele>2621</ele>
        <time>2021-10-02T11:30:59Z</time>
      </trkpt>
      <trkpt lat="45.38532" lon="6.79094">
        <ele>2628</ele>
        <time>2021-10-02T11:31:41Z</time>
      </trkpt>
      <trkpt lat="45.38525" lon="6.79095">
        <ele>2631</ele>
        <time>2021-10-02T11:32:05Z</time>
      </trkpt>
      <trkpt lat="45.38519" lon="6.79093">
        <ele>2631</ele>
        <time>2021-10-02T11:32:17Z</time>
      </trkpt>
      <trkpt lat="45.38514" lon="6.79089">
        <ele>2634</ele>
        <time>2021-10-02T11:32:41Z</time>
      </trkpt>
      <trkpt lat="45.38508" lon="6.7909">
        <ele>2639</ele>
        <time>2021-10-02T11:33:05Z</time>
      </trkpt>
      <trkpt lat="45.38504" lon="6.79096">
        <ele>2637</ele>
        <time>2021-10-02T11:33:17Z</time>
      </trkpt>
      <trkpt lat="45.38502" lon="6.79107">
        <ele>2639</ele>
        <time>2021-10-02T11:33:35Z</time>
      </trkpt>
      <trkpt lat="45.38496" lon="6.79108">
        <ele>2640</ele>
        <time>2021-10-02T11:33:47Z</time>
      </trkpt>
      <trkpt lat="45.38489" lon="6.7911">
        <ele>2640</ele>
        <time>2021-10-02T11:33:59Z</time>
      </trkpt>
      <trkpt lat="45.38483" lon="6.79115">
        <ele>2644</ele>
        <time>2021-10-02T11:34:17Z</time>
      </trkpt>
      <trkpt lat="45.38478" lon="6.79123">
        <ele>2644</ele>
        <time>2021-10-02T11:34:29Z</time>
      </trkpt>
      <trkpt lat="45.38471" lon="6.79124">
        <ele>2645</ele>
        <time>2021-10-02T11:34:41Z</time>
      </trkpt>
      <trkpt lat="45.38466" lon="6.79119">
        <ele>2647</ele>
        <time>2021-10-02T11:34:52Z</time>
      </trkpt>
      <trkpt lat="45.3846" lon="6.7912">
        <ele>2651</ele>
        <time>2021-10-02T11:35:07Z</time>
      </trkpt>
      <trkpt lat="45.38454" lon="6.79123">
        <ele>2652</ele>
        <time>2021-10-02T11:35:44Z</time>
      </trkpt>
      <trkpt lat="45.38451" lon="6.79117">
        <ele>2654</ele>
        <time>2021-10-02T11:35:50Z</time>
      </trkpt>
      <trkpt lat="45.38443" lon="6.79107">
        <ele>2654</ele>
        <time>2021-10-02T11:36:04Z</time>
      </trkpt>
      <trkpt lat="45.38441" lon="6.79099">
        <ele>2655</ele>
        <time>2021-10-02T11:36:16Z</time>
      </trkpt>
      <trkpt lat="45.38439" lon="6.79088">
        <ele>2656</ele>
        <time>2021-10-02T11:36:28Z</time>
      </trkpt>
      <trkpt lat="45.38433" lon="6.79088">
        <ele>2661</ele>
        <time>2021-10-02T11:36:40Z</time>
      </trkpt>
      <trkpt lat="45.38427" lon="6.79086">
        <ele>2661</ele>
        <time>2021-10-02T11:37:04Z</time>
      </trkpt>
      <trkpt lat="45.38429" lon="6.79094">
        <ele>2662</ele>
        <time>2021-10-02T11:37:28Z</time>
      </trkpt>
      <trkpt lat="45.38422" lon="6.79089">
        <ele>2666</ele>
        <time>2021-10-02T11:37:46Z</time>
      </trkpt>
      <trkpt lat="45.38415" lon="6.79087">
        <ele>2667</ele>
        <time>2021-10-02T11:38:04Z</time>
      </trkpt>
      <trkpt lat="45.3841" lon="6.79091">
        <ele>2670</ele>
        <time>2021-10-02T11:38:34Z</time>
      </trkpt>
      <trkpt lat="45.38403" lon="6.79092">
        <ele>2670</ele>
        <time>2021-10-02T11:38:46Z</time>
      </trkpt>
      <trkpt lat="45.384" lon="6.791">
        <ele>2675</ele>
        <time>2021-10-02T11:39:22Z</time>
      </trkpt>
      <trkpt lat="45.38393" lon="6.79099">
        <ele>2677</ele>
        <time>2021-10-02T11:39:40Z</time>
      </trkpt>
      <trkpt lat="45.38389" lon="6.79094">
        <ele>2679</ele>
        <time>2021-10-02T11:39:58Z</time>
      </trkpt>
      <trkpt lat="45.38387" lon="6.79085">
        <ele>2682</ele>
        <time>2021-10-02T11:40:16Z</time>
      </trkpt>
      <trkpt lat="45.38379" lon="6.79083">
        <ele>2684</ele>
        <time>2021-10-02T11:40:40Z</time>
      </trkpt>
      <trkpt lat="45.38372" lon="6.79083">
        <ele>2684</ele>
        <time>2021-10-02T11:40:53Z</time>
      </trkpt>
      <trkpt lat="45.38365" lon="6.7908">
        <ele>2688</ele>
        <time>2021-10-02T11:41:11Z</time>
      </trkpt>
      <trkpt lat="45.38358" lon="6.79087">
        <ele>2691</ele>
        <time>2021-10-02T11:41:23Z</time>
      </trkpt>
      <trkpt lat="45.38352" lon="6.79091">
        <ele>2690</ele>
        <time>2021-10-02T11:41:31Z</time>
      </trkpt>
      <trkpt lat="45.38344" lon="6.79089">
        <ele>2691</ele>
        <time>2021-10-02T11:41:43Z</time>
      </trkpt>
      <trkpt lat="45.38341" lon="6.79079">
        <ele>2691</ele>
        <time>2021-10-02T11:41:55Z</time>
      </trkpt>
      <trkpt lat="45.38324" lon="6.7908">
        <ele>2695</ele>
        <time>2021-10-02T11:42:20Z</time>
      </trkpt>
      <trkpt lat="45.38319" lon="6.79076">
        <ele>2697</ele>
        <time>2021-10-02T11:42:35Z</time>
      </trkpt>
      <trkpt lat="45.38313" lon="6.79082">
        <ele>2701</ele>
        <time>2021-10-02T11:42:53Z</time>
      </trkpt>
      <trkpt lat="45.38307" lon="6.79082">
        <ele>2700</ele>
        <time>2021-10-02T11:43:05Z</time>
      </trkpt>
      <trkpt lat="45.38303" lon="6.79077">
        <ele>2702</ele>
        <time>2021-10-02T11:43:23Z</time>
      </trkpt>
      <trkpt lat="45.38296" lon="6.79077">
        <ele>2706</ele>
        <time>2021-10-02T11:43:47Z</time>
      </trkpt>
      <trkpt lat="45.38292" lon="6.79085">
        <ele>2707</ele>
        <time>2021-10-02T11:44:00Z</time>
      </trkpt>
      <trkpt lat="45.38286" lon="6.79086">
        <ele>2711</ele>
        <time>2021-10-02T11:44:42Z</time>
      </trkpt>
      <trkpt lat="45.38282" lon="6.79094">
        <ele>2713</ele>
        <time>2021-10-02T11:44:59Z</time>
      </trkpt>
      <trkpt lat="45.38275" lon="6.79091">
        <ele>2714</ele>
        <time>2021-10-02T11:45:17Z</time>
      </trkpt>
      <trkpt lat="45.38269" lon="6.79083">
        <ele>2717</ele>
        <time>2021-10-02T11:45:41Z</time>
      </trkpt>
      <trkpt lat="45.38266" lon="6.79075">
        <ele>2716</ele>
        <time>2021-10-02T11:45:59Z</time>
      </trkpt>
      <trkpt lat="45.38264" lon="6.79061">
        <ele>2720</ele>
        <time>2021-10-02T11:46:17Z</time>
      </trkpt>
      <trkpt lat="45.38263" lon="6.79053">
        <ele>2722</ele>
        <time>2021-10-02T11:46:35Z</time>
      </trkpt>
      <trkpt lat="45.38261" lon="6.7904">
        <ele>2726</ele>
        <time>2021-10-02T11:47:19Z</time>
      </trkpt>
      <trkpt lat="45.38257" lon="6.79035">
        <ele>2730</ele>
        <time>2021-10-02T11:47:31Z</time>
      </trkpt>
      <trkpt lat="45.38251" lon="6.79044">
        <ele>2730</ele>
        <time>2021-10-02T11:47:49Z</time>
      </trkpt>
      <trkpt lat="45.38248" lon="6.79052">
        <ele>2730</ele>
        <time>2021-10-02T11:47:56Z</time>
      </trkpt>
      <trkpt lat="45.38248" lon="6.7906">
        <ele>2733</ele>
        <time>2021-10-02T11:48:26Z</time>
      </trkpt>
      <trkpt lat="45.38241" lon="6.79058">
        <ele>2736</ele>
        <time>2021-10-02T11:48:56Z</time>
      </trkpt>
      <trkpt lat="45.38241" lon="6.79046">
        <ele>2736</ele>
        <time>2021-10-02T11:49:13Z</time>
      </trkpt>
      <trkpt lat="45.38241" lon="6.79038">
        <ele>2738</ele>
        <time>2021-10-02T11:49:23Z</time>
      </trkpt>
      <trkpt lat="45.38236" lon="6.79027">
        <ele>2738</ele>
        <time>2021-10-02T11:49:35Z</time>
      </trkpt>
      <trkpt lat="45.38228" lon="6.7903">
        <ele>2741</ele>
        <time>2021-10-02T11:50:10Z</time>
      </trkpt>
      <trkpt lat="45.38223" lon="6.79041">
        <ele>2745</ele>
        <time>2021-10-02T11:50:34Z</time>
      </trkpt>
      <trkpt lat="45.38215" lon="6.79037">
        <ele>2748</ele>
        <time>2021-10-02T11:51:18Z</time>
      </trkpt>
      <trkpt lat="45.3821" lon="6.79045">
        <ele>2750</ele>
        <time>2021-10-02T11:51:35Z</time>
      </trkpt>
      <trkpt lat="45.38207" lon="6.79054">
        <ele>2750</ele>
        <time>2021-10-02T11:51:47Z</time>
      </trkpt>
      <trkpt lat="45.38205" lon="6.79062">
        <ele>2754</ele>
        <time>2021-10-02T11:52:17Z</time>
      </trkpt>
      <trkpt lat="45.38199" lon="6.79061">
        <ele>2757</ele>
        <time>2021-10-02T11:52:41Z</time>
      </trkpt>
      <trkpt lat="45.38192" lon="6.79061">
        <ele>2761</ele>
        <time>2021-10-02T11:53:05Z</time>
      </trkpt>
      <trkpt lat="45.38188" lon="6.79069">
        <ele>2762</ele>
        <time>2021-10-02T11:53:17Z</time>
      </trkpt>
      <trkpt lat="45.38183" lon="6.79069">
        <ele>2763</ele>
        <time>2021-10-02T11:53:53Z</time>
      </trkpt>
      <trkpt lat="45.38177" lon="6.79064">
        <ele>2767</ele>
        <time>2021-10-02T11:54:17Z</time>
      </trkpt>
      <trkpt lat="45.38173" lon="6.79058">
        <ele>2768</ele>
        <time>2021-10-02T11:54:35Z</time>
      </trkpt>
      <trkpt lat="45.38168" lon="6.79058">
        <ele>2768</ele>
        <time>2021-10-02T11:54:47Z</time>
      </trkpt>
      <trkpt lat="45.38163" lon="6.79056">
        <ele>2769</ele>
        <time>2021-10-02T11:54:59Z</time>
      </trkpt>
      <trkpt lat="45.38151" lon="6.79059">
        <ele>2768</ele>
        <time>2021-10-02T11:55:23Z</time>
      </trkpt>
      <trkpt lat="45.3814" lon="6.79071">
        <ele>2771</ele>
        <time>2021-10-02T11:55:43Z</time>
      </trkpt>
      <trkpt lat="45.38134" lon="6.79073">
        <ele>2772</ele>
        <time>2021-10-02T11:55:55Z</time>
      </trkpt>
      <trkpt lat="45.38126" lon="6.79074">
        <ele>2773</ele>
        <time>2021-10-02T11:56:07Z</time>
      </trkpt>
      <trkpt lat="45.3812" lon="6.79079">
        <ele>2775</ele>
        <time>2021-10-02T11:56:17Z</time>
      </trkpt>
      <trkpt lat="45.38111" lon="6.79084">
        <ele>2775</ele>
        <time>2021-10-02T11:56:29Z</time>
      </trkpt>
      <trkpt lat="45.38105" lon="6.79084">
        <ele>2776</ele>
        <time>2021-10-02T11:56:34Z</time>
      </trkpt>
      <trkpt lat="45.38096" lon="6.79082">
        <ele>2777</ele>
        <time>2021-10-02T11:56:44Z</time>
      </trkpt>
      <trkpt lat="45.3809" lon="6.79079">
        <ele>2776</ele>
        <time>2021-10-02T11:56:58Z</time>
      </trkpt>
      <trkpt lat="45.38081" lon="6.79075">
        <ele>2780</ele>
        <time>2021-10-02T11:57:28Z</time>
      </trkpt>
      <trkpt lat="45.38072" lon="6.79081">
        <ele>2781</ele>
        <time>2021-10-02T11:57:40Z</time>
      </trkpt>
      <trkpt lat="45.38068" lon="6.79074">
        <ele>2783</ele>
        <time>2021-10-02T11:57:58Z</time>
      </trkpt>
      <trkpt lat="45.38063" lon="6.79069">
        <ele>2783</ele>
        <time>2021-10-02T11:58:10Z</time>
      </trkpt>
      <trkpt lat="45.3806" lon="6.79061">
        <ele>2786</ele>
        <time>2021-10-02T11:58:23Z</time>
      </trkpt>
      <trkpt lat="45.38055" lon="6.79056">
        <ele>2788</ele>
        <time>2021-10-02T11:58:47Z</time>
      </trkpt>
      <trkpt lat="45.3805" lon="6.79049">
        <ele>2788</ele>
        <time>2021-10-02T11:58:59Z</time>
      </trkpt>
      <trkpt lat="45.38044" lon="6.79042">
        <ele>2792</ele>
        <time>2021-10-02T11:59:18Z</time>
      </trkpt>
      <trkpt lat="45.38041" lon="6.79034">
        <ele>2792</ele>
        <time>2021-10-02T11:59:30Z</time>
      </trkpt>
      <trkpt lat="45.38034" lon="6.79031">
        <ele>2794</ele>
        <time>2021-10-02T11:59:54Z</time>
      </trkpt>
      <trkpt lat="45.38029" lon="6.79022">
        <ele>2796</ele>
        <time>2021-10-02T12:00:18Z</time>
      </trkpt>
      <trkpt lat="45.38025" lon="6.79014">
        <ele>2801</ele>
        <time>2021-10-02T12:00:42Z</time>
      </trkpt>
      <trkpt lat="45.38021" lon="6.79008">
        <ele>2802</ele>
        <time>2021-10-02T12:01:06Z</time>
      </trkpt>
      <trkpt lat="45.38017" lon="6.79002">
        <ele>2801</ele>
        <time>2021-10-02T12:01:18Z</time>
      </trkpt>
      <trkpt lat="45.38015" lon="6.78993">
        <ele>2804</ele>
        <time>2021-10-02T12:01:32Z</time>
      </trkpt>
      <trkpt lat="45.38013" lon="6.78983">
        <ele>2807</ele>
        <time>2021-10-02T12:01:44Z</time>
      </trkpt>
      <trkpt lat="45.38007" lon="6.78974">
        <ele>2807</ele>
        <time>2021-10-02T12:02:08Z</time>
      </trkpt>
      <trkpt lat="45.38011" lon="6.78965">
        <ele>2807</ele>
        <time>2021-10-02T12:02:21Z</time>
      </trkpt>
      <trkpt lat="45.3801" lon="6.78954">
        <ele>2810</ele>
        <time>2021-10-02T12:02:45Z</time>
      </trkpt>
      <trkpt lat="45.38004" lon="6.78951">
        <ele>2813</ele>
        <time>2021-10-02T12:03:15Z</time>
      </trkpt>
      <trkpt lat="45.37999" lon="6.78951">
        <ele>2815</ele>
        <time>2021-10-02T12:03:35Z</time>
      </trkpt>
      <trkpt lat="45.37998" lon="6.7895">
        <ele>2819</ele>
        <time>2021-10-02T12:04:28Z</time>
      </trkpt>
      <trkpt lat="45.37997" lon="6.78937">
        <ele>2820</ele>
        <time>2021-10-02T12:04:42Z</time>
      </trkpt>
      <trkpt lat="45.37997" lon="6.78927">
        <ele>2824</ele>
        <time>2021-10-02T12:05:17Z</time>
      </trkpt>
      <trkpt lat="45.37995" lon="6.78919">
        <ele>2827</ele>
        <time>2021-10-02T12:05:53Z</time>
      </trkpt>
      <trkpt lat="45.37993" lon="6.78911">
        <ele>2828</ele>
        <time>2021-10-02T12:06:11Z</time>
      </trkpt>
      <trkpt lat="45.37989" lon="6.78918">
        <ele>2832</ele>
        <time>2021-10-02T12:07:00Z</time>
      </trkpt>
      <trkpt lat="45.37977" lon="6.78934">
        <ele>2836</ele>
        <time>2021-10-02T12:07:25Z</time>
      </trkpt>
      <trkpt lat="45.37975" lon="6.78942">
        <ele>2837</ele>
        <time>2021-10-02T12:07:49Z</time>
      </trkpt>
      <trkpt lat="45.37969" lon="6.78945">
        <ele>2838</ele>
        <time>2021-10-02T12:08:07Z</time>
      </trkpt>
      <trkpt lat="45.37964" lon="6.78951">
        <ele>2841</ele>
        <time>2021-10-02T12:08:37Z</time>
      </trkpt>
      <trkpt lat="45.37962" lon="6.7896">
        <ele>2844</ele>
        <time>2021-10-02T12:09:07Z</time>
      </trkpt>
      <trkpt lat="45.37959" lon="6.78966">
        <ele>2849</ele>
        <time>2021-10-02T12:09:37Z</time>
      </trkpt>
      <trkpt lat="45.37954" lon="6.78971">
        <ele>2851</ele>
        <time>2021-10-02T12:10:01Z</time>
      </trkpt>
      <trkpt lat="45.37946" lon="6.78969">
        <ele>2853</ele>
        <time>2021-10-02T12:10:24Z</time>
      </trkpt>
      <trkpt lat="45.37944" lon="6.7898">
        <ele>2856</ele>
        <time>2021-10-02T12:10:50Z</time>
      </trkpt>
      <trkpt lat="45.3794" lon="6.78987">
        <ele>2858</ele>
        <time>2021-10-02T12:11:15Z</time>
      </trkpt>
      <trkpt lat="45.37933" lon="6.78993">
        <ele>2863</ele>
        <time>2021-10-02T12:12:56Z</time>
      </trkpt>
      <trkpt lat="45.37931" lon="6.79001">
        <ele>2865</ele>
        <time>2021-10-02T12:13:08Z</time>
      </trkpt>
      <trkpt lat="45.3793" lon="6.79009">
        <ele>2863</ele>
        <time>2021-10-02T12:13:20Z</time>
      </trkpt>
      <trkpt lat="45.37924" lon="6.79017">
        <ele>2865</ele>
        <time>2021-10-02T12:13:32Z</time>
      </trkpt>
      <trkpt lat="45.3791" lon="6.79035">
        <ele>2869</ele>
        <time>2021-10-02T12:14:20Z</time>
      </trkpt>
      <trkpt lat="45.37909" lon="6.79045">
        <ele>2873</ele>
        <time>2021-10-02T12:14:56Z</time>
      </trkpt>
      <trkpt lat="45.37906" lon="6.79053">
        <ele>2873</ele>
        <time>2021-10-02T12:15:08Z</time>
      </trkpt>
      <trkpt lat="45.37905" lon="6.79042">
        <ele>2875</ele>
        <time>2021-10-02T12:16:08Z</time>
      </trkpt>
      <trkpt lat="45.37912" lon="6.7904">
        <ele>2877</ele>
        <time>2021-10-02T12:16:50Z</time>
      </trkpt>
      <trkpt lat="45.37899" lon="6.79028">
        <ele>2880</ele>
        <time>2021-10-02T12:18:06Z</time>
      </trkpt>
      <trkpt lat="45.37899" lon="6.79016">
        <ele>2882</ele>
        <time>2021-10-02T12:18:36Z</time>
      </trkpt>
      <trkpt lat="45.37897" lon="6.79007">
        <ele>2886</ele>
        <time>2021-10-02T12:19:12Z</time>
      </trkpt>
      <trkpt lat="45.37892" lon="6.79003">
        <ele>2887</ele>
        <time>2021-10-02T12:19:42Z</time>
      </trkpt>
      <trkpt lat="45.37892" lon="6.78991">
        <ele>2891</ele>
        <time>2021-10-02T12:20:11Z</time>
      </trkpt>
      <trkpt lat="45.37893" lon="6.78984">
        <ele>2891</ele>
        <time>2021-10-02T12:20:23Z</time>
      </trkpt>
      <trkpt lat="45.3789" lon="6.78971">
        <ele>2893</ele>
        <time>2021-10-02T12:20:35Z</time>
      </trkpt>
      <trkpt lat="45.37884" lon="6.78963">
        <ele>2894</ele>
        <time>2021-10-02T12:20:47Z</time>
      </trkpt>
      <trkpt lat="45.37877" lon="6.78959">
        <ele>2894</ele>
        <time>2021-10-02T12:20:59Z</time>
      </trkpt>
      <trkpt lat="45.37878" lon="6.78952">
        <ele>2894</ele>
        <time>2021-10-02T12:21:17Z</time>
      </trkpt>
      <trkpt lat="45.37869" lon="6.78959">
        <ele>2894</ele>
        <time>2021-10-02T12:25:32Z</time>
      </trkpt>
      <trkpt lat="45.37865" lon="6.78963">
        <ele>2893</ele>
        <time>2021-10-02T12:25:38Z</time>
      </trkpt>
      <trkpt lat="45.37864" lon="6.78972">
        <ele>2895</ele>
        <time>2021-10-02T12:25:47Z</time>
      </trkpt>
      <trkpt lat="45.37858" lon="6.78974">
        <ele>2895</ele>
        <time>2021-10-02T12:25:59Z</time>
      </trkpt>
      <trkpt lat="45.37852" lon="6.78972">
        <ele>2897</ele>
        <time>2021-10-02T12:26:12Z</time>
      </trkpt>
      <trkpt lat="45.37845" lon="6.78961">
        <ele>2895</ele>
        <time>2021-10-02T12:26:24Z</time>
      </trkpt>
      <trkpt lat="45.37842" lon="6.78954">
        <ele>2895</ele>
        <time>2021-10-02T12:26:29Z</time>
      </trkpt>
      <trkpt lat="45.37839" lon="6.78948">
        <ele>2895</ele>
        <time>2021-10-02T12:26:35Z</time>
      </trkpt>
      <trkpt lat="45.37829" lon="6.78939">
        <ele>2896</ele>
        <time>2021-10-02T12:26:49Z</time>
      </trkpt>
      <trkpt lat="45.37825" lon="6.78929">
        <ele>2896</ele>
        <time>2021-10-02T12:26:57Z</time>
      </trkpt>
      <trkpt lat="45.37815" lon="6.78917">
        <ele>2899</ele>
        <time>2021-10-02T12:27:17Z</time>
      </trkpt>
      <trkpt lat="45.37808" lon="6.78905">
        <ele>2899</ele>
        <time>2021-10-02T12:27:30Z</time>
      </trkpt>
      <trkpt lat="45.37807" lon="6.78897">
        <ele>2900</ele>
        <time>2021-10-02T12:27:36Z</time>
      </trkpt>
      <trkpt lat="45.37802" lon="6.78891">
        <ele>2900</ele>
        <time>2021-10-02T12:27:42Z</time>
      </trkpt>
      <trkpt lat="45.37797" lon="6.78886">
        <ele>2901</ele>
        <time>2021-10-02T12:27:51Z</time>
      </trkpt>
      <trkpt lat="45.37788" lon="6.78882">
        <ele>2903</ele>
        <time>2021-10-02T12:28:04Z</time>
      </trkpt>
      <trkpt lat="45.37781" lon="6.78875">
        <ele>2904</ele>
        <time>2021-10-02T12:28:17Z</time>
      </trkpt>
      <trkpt lat="45.37776" lon="6.7887">
        <ele>2905</ele>
        <time>2021-10-02T12:28:29Z</time>
      </trkpt>
      <trkpt lat="45.3777" lon="6.7887">
        <ele>2906</ele>
        <time>2021-10-02T12:28:36Z</time>
      </trkpt>
      <trkpt lat="45.37763" lon="6.78859">
        <ele>2907</ele>
        <time>2021-10-02T12:28:50Z</time>
      </trkpt>
      <trkpt lat="45.37757" lon="6.78849">
        <ele>2907</ele>
        <time>2021-10-02T12:29:02Z</time>
      </trkpt>
      <trkpt lat="45.37752" lon="6.78843">
        <ele>2909</ele>
        <time>2021-10-02T12:29:14Z</time>
      </trkpt>
      <trkpt lat="45.37745" lon="6.78833">
        <ele>2909</ele>
        <time>2021-10-02T12:29:26Z</time>
      </trkpt>
      <trkpt lat="45.37738" lon="6.78827">
        <ele>2911</ele>
        <time>2021-10-02T12:29:39Z</time>
      </trkpt>
      <trkpt lat="45.37733" lon="6.7882">
        <ele>2910</ele>
        <time>2021-10-02T12:29:51Z</time>
      </trkpt>
      <trkpt lat="45.37724" lon="6.78816">
        <ele>2909</ele>
        <time>2021-10-02T12:30:04Z</time>
      </trkpt>
      <trkpt lat="45.37717" lon="6.78812">
        <ele>2912</ele>
        <time>2021-10-02T12:30:22Z</time>
      </trkpt>
      <trkpt lat="45.37713" lon="6.78807">
        <ele>2913</ele>
        <time>2021-10-02T12:30:34Z</time>
      </trkpt>
      <trkpt lat="45.37706" lon="6.78803">
        <ele>2914</ele>
        <time>2021-10-02T12:30:46Z</time>
      </trkpt>
      <trkpt lat="45.37702" lon="6.78798">
        <ele>2916</ele>
        <time>2021-10-02T12:30:58Z</time>
      </trkpt>
      <trkpt lat="45.37696" lon="6.78797">
        <ele>2917</ele>
        <time>2021-10-02T12:31:16Z</time>
      </trkpt>
      <trkpt lat="45.37692" lon="6.78793">
        <ele>2920</ele>
        <time>2021-10-02T12:31:34Z</time>
      </trkpt>
      <trkpt lat="45.37687" lon="6.78788">
        <ele>2921</ele>
        <time>2021-10-02T12:31:46Z</time>
      </trkpt>
      <trkpt lat="45.37682" lon="6.78783">
        <ele>2921</ele>
        <time>2021-10-02T12:32:08Z</time>
      </trkpt>
      <trkpt lat="45.37675" lon="6.78776">
        <ele>2926</ele>
        <time>2021-10-02T12:32:31Z</time>
      </trkpt>
      <trkpt lat="45.3767" lon="6.78773">
        <ele>2927</ele>
        <time>2021-10-02T12:32:49Z</time>
      </trkpt>
      <trkpt lat="45.37666" lon="6.78767">
        <ele>2929</ele>
        <time>2021-10-02T12:33:07Z</time>
      </trkpt>
      <trkpt lat="45.37661" lon="6.78763">
        <ele>2931</ele>
        <time>2021-10-02T12:33:18Z</time>
      </trkpt>
      <trkpt lat="45.37657" lon="6.78757">
        <ele>2932</ele>
        <time>2021-10-02T12:33:25Z</time>
      </trkpt>
      <trkpt lat="45.37651" lon="6.78766">
        <ele>2935</ele>
        <time>2021-10-02T12:34:36Z</time>
      </trkpt>
      <trkpt lat="45.37643" lon="6.78772">
        <ele>2936</ele>
        <time>2021-10-02T12:34:49Z</time>
      </trkpt>
      <trkpt lat="45.37637" lon="6.78774">
        <ele>2939</ele>
        <time>2021-10-02T12:35:07Z</time>
      </trkpt>
      <trkpt lat="45.37633" lon="6.78783">
        <ele>2940</ele>
        <time>2021-10-02T12:35:25Z</time>
      </trkpt>
      <trkpt lat="45.37629" lon="6.78789">
        <ele>2942</ele>
        <time>2021-10-02T12:35:37Z</time>
      </trkpt>
      <trkpt lat="45.3762" lon="6.78803">
        <ele>2947</ele>
        <time>2021-10-02T12:36:13Z</time>
      </trkpt>
      <trkpt lat="45.37617" lon="6.78812">
        <ele>2949</ele>
        <time>2021-10-02T12:36:31Z</time>
      </trkpt>
      <trkpt lat="45.37611" lon="6.78819">
        <ele>2953</ele>
        <time>2021-10-02T12:36:55Z</time>
      </trkpt>
      <trkpt lat="45.37609" lon="6.78826">
        <ele>2955</ele>
        <time>2021-10-02T12:37:13Z</time>
      </trkpt>
      <trkpt lat="45.37604" lon="6.78836">
        <ele>2958</ele>
        <time>2021-10-02T12:37:37Z</time>
      </trkpt>
      <trkpt lat="45.37599" lon="6.78841">
        <ele>2959</ele>
        <time>2021-10-02T12:37:55Z</time>
      </trkpt>
      <trkpt lat="45.37588" lon="6.78853">
        <ele>2965</ele>
        <time>2021-10-02T12:38:31Z</time>
      </trkpt>
      <trkpt lat="45.37582" lon="6.78852">
        <ele>2965</ele>
        <time>2021-10-02T12:38:43Z</time>
      </trkpt>
      <trkpt lat="45.37577" lon="6.78869">
        <ele>2970</ele>
        <time>2021-10-02T12:39:25Z</time>
      </trkpt>
      <trkpt lat="45.37573" lon="6.78874">
        <ele>2971</ele>
        <time>2021-10-02T12:39:42Z</time>
      </trkpt>
      <trkpt lat="45.3757" lon="6.78895">
        <ele>2974</ele>
        <time>2021-10-02T12:40:05Z</time>
      </trkpt>
      <trkpt lat="45.37565" lon="6.78898">
        <ele>2977</ele>
        <time>2021-10-02T12:40:17Z</time>
      </trkpt>
      <trkpt lat="45.37559" lon="6.78904">
        <ele>2977</ele>
        <time>2021-10-02T12:40:29Z</time>
      </trkpt>
      <trkpt lat="45.37554" lon="6.7891">
        <ele>2978</ele>
        <time>2021-10-02T12:40:41Z</time>
      </trkpt>
      <trkpt lat="45.37549" lon="6.78915">
        <ele>2980</ele>
        <time>2021-10-02T12:40:53Z</time>
      </trkpt>
      <trkpt lat="45.3754" lon="6.78929">
        <ele>2982</ele>
        <time>2021-10-02T12:41:17Z</time>
      </trkpt>
      <trkpt lat="45.37538" lon="6.78939">
        <ele>2984</ele>
        <time>2021-10-02T12:41:35Z</time>
      </trkpt>
      <trkpt lat="45.37531" lon="6.78948">
        <ele>2986</ele>
        <time>2021-10-02T12:42:29Z</time>
      </trkpt>
      <trkpt lat="45.37531" lon="6.78947">
        <ele>2988</ele>
        <time>2021-10-02T12:44:41Z</time>
      </trkpt>
      <trkpt lat="45.37537" lon="6.78938">
        <ele>2987</ele>
        <time>2021-10-02T12:46:09Z</time>
      </trkpt>
      <trkpt lat="45.37547" lon="6.7893">
        <ele>2985</ele>
        <time>2021-10-02T12:46:19Z</time>
      </trkpt>
      <trkpt lat="45.37562" lon="6.78903">
        <ele>2981</ele>
        <time>2021-10-02T12:46:46Z</time>
      </trkpt>
      <trkpt lat="45.37568" lon="6.789">
        <ele>2979</ele>
        <time>2021-10-02T12:46:54Z</time>
      </trkpt>
      <trkpt lat="45.37571" lon="6.78887">
        <ele>2977</ele>
        <time>2021-10-02T12:47:06Z</time>
      </trkpt>
      <trkpt lat="45.37588" lon="6.78857">
        <ele>2971</ele>
        <time>2021-10-02T12:47:48Z</time>
      </trkpt>
      <trkpt lat="45.37602" lon="6.78853">
        <ele>2968</ele>
        <time>2021-10-02T12:48:06Z</time>
      </trkpt>
      <trkpt lat="45.37609" lon="6.78844">
        <ele>2964</ele>
        <time>2021-10-02T12:48:20Z</time>
      </trkpt>
      <trkpt lat="45.37617" lon="6.78839">
        <ele>2961</ele>
        <time>2021-10-02T12:48:32Z</time>
      </trkpt>
      <trkpt lat="45.37623" lon="6.78838">
        <ele>2960</ele>
        <time>2021-10-02T12:48:37Z</time>
      </trkpt>
      <trkpt lat="45.37629" lon="6.78833">
        <ele>2957</ele>
        <time>2021-10-02T12:48:46Z</time>
      </trkpt>
      <trkpt lat="45.37634" lon="6.78825">
        <ele>2954</ele>
        <time>2021-10-02T12:48:58Z</time>
      </trkpt>
      <trkpt lat="45.37644" lon="6.7881">
        <ele>2949</ele>
        <time>2021-10-02T12:49:20Z</time>
      </trkpt>
      <trkpt lat="45.37652" lon="6.78817">
        <ele>2946</ele>
        <time>2021-10-02T12:49:32Z</time>
      </trkpt>
      <trkpt lat="45.37661" lon="6.7882">
        <ele>2943</ele>
        <time>2021-10-02T12:49:46Z</time>
      </trkpt>
      <trkpt lat="45.37667" lon="6.78818">
        <ele>2941</ele>
        <time>2021-10-02T12:49:58Z</time>
      </trkpt>
      <trkpt lat="45.37674" lon="6.78811">
        <ele>2937</ele>
        <time>2021-10-02T12:50:10Z</time>
      </trkpt>
      <trkpt lat="45.37681" lon="6.7881">
        <ele>2936</ele>
        <time>2021-10-02T12:50:22Z</time>
      </trkpt>
      <trkpt lat="45.37688" lon="6.78815">
        <ele>2933</ele>
        <time>2021-10-02T12:50:40Z</time>
      </trkpt>
      <trkpt lat="45.37709" lon="6.78821">
        <ele>2928</ele>
        <time>2021-10-02T12:51:11Z</time>
      </trkpt>
      <trkpt lat="45.37715" lon="6.78822">
        <ele>2926</ele>
        <time>2021-10-02T12:51:18Z</time>
      </trkpt>
      <trkpt lat="45.3772" lon="6.78818">
        <ele>2924</ele>
        <time>2021-10-02T12:51:24Z</time>
      </trkpt>
      <trkpt lat="45.37726" lon="6.78815">
        <ele>2921</ele>
        <time>2021-10-02T12:51:38Z</time>
      </trkpt>
      <trkpt lat="45.37732" lon="6.78822">
        <ele>2920</ele>
        <time>2021-10-02T12:51:51Z</time>
      </trkpt>
      <trkpt lat="45.37743" lon="6.78831">
        <ele>2920</ele>
        <time>2021-10-02T12:52:15Z</time>
      </trkpt>
      <trkpt lat="45.3775" lon="6.7884">
        <ele>2919</ele>
        <time>2021-10-02T12:52:29Z</time>
      </trkpt>
      <trkpt lat="45.37752" lon="6.78847">
        <ele>2920</ele>
        <time>2021-10-02T12:52:35Z</time>
      </trkpt>
      <trkpt lat="45.37761" lon="6.78865">
        <ele>2917</ele>
        <time>2021-10-02T12:52:54Z</time>
      </trkpt>
      <trkpt lat="45.37762" lon="6.78871">
        <ele>2918</ele>
        <time>2021-10-02T12:52:59Z</time>
      </trkpt>
      <trkpt lat="45.37765" lon="6.78876">
        <ele>2917</ele>
        <time>2021-10-02T12:53:03Z</time>
      </trkpt>
      <trkpt lat="45.37767" lon="6.78884">
        <ele>2917</ele>
        <time>2021-10-02T12:53:11Z</time>
      </trkpt>
      <trkpt lat="45.37772" lon="6.78887">
        <ele>2916</ele>
        <time>2021-10-02T12:53:18Z</time>
      </trkpt>
      <trkpt lat="45.37778" lon="6.78889">
        <ele>2915</ele>
        <time>2021-10-02T12:53:23Z</time>
      </trkpt>
      <trkpt lat="45.37787" lon="6.78894">
        <ele>2914</ele>
        <time>2021-10-02T12:53:30Z</time>
      </trkpt>
      <trkpt lat="45.37789" lon="6.78899">
        <ele>2915</ele>
        <time>2021-10-02T12:53:33Z</time>
      </trkpt>
      <trkpt lat="45.37802" lon="6.78904">
        <ele>2912</ele>
        <time>2021-10-02T12:53:51Z</time>
      </trkpt>
      <trkpt lat="45.37806" lon="6.78898">
        <ele>2911</ele>
        <time>2021-10-02T12:53:56Z</time>
      </trkpt>
      <trkpt lat="45.3781" lon="6.78908">
        <ele>2910</ele>
        <time>2021-10-02T12:54:11Z</time>
      </trkpt>
      <trkpt lat="45.37811" lon="6.78912">
        <ele>2910</ele>
        <time>2021-10-02T12:54:14Z</time>
      </trkpt>
      <trkpt lat="45.37816" lon="6.78918">
        <ele>2910</ele>
        <time>2021-10-02T12:54:22Z</time>
      </trkpt>
      <trkpt lat="45.37828" lon="6.78934">
        <ele>2907</ele>
        <time>2021-10-02T12:54:39Z</time>
      </trkpt>
      <trkpt lat="45.37831" lon="6.78941">
        <ele>2907</ele>
        <time>2021-10-02T12:54:46Z</time>
      </trkpt>
      <trkpt lat="45.37836" lon="6.78948">
        <ele>2906</ele>
        <time>2021-10-02T12:54:54Z</time>
      </trkpt>
      <trkpt lat="45.37838" lon="6.78952">
        <ele>2906</ele>
        <time>2021-10-02T12:54:58Z</time>
      </trkpt>
      <trkpt lat="45.37844" lon="6.78958">
        <ele>2906</ele>
        <time>2021-10-02T12:55:05Z</time>
      </trkpt>
      <trkpt lat="45.37847" lon="6.78961">
        <ele>2906</ele>
        <time>2021-10-02T12:55:09Z</time>
      </trkpt>
      <trkpt lat="45.37852" lon="6.78966">
        <ele>2906</ele>
        <time>2021-10-02T12:55:19Z</time>
      </trkpt>
      <trkpt lat="45.37856" lon="6.78968">
        <ele>2906</ele>
        <time>2021-10-02T12:55:23Z</time>
      </trkpt>
      <trkpt lat="45.37859" lon="6.78973">
        <ele>2906</ele>
        <time>2021-10-02T12:55:31Z</time>
      </trkpt>
      <trkpt lat="45.37867" lon="6.78965">
        <ele>2905</ele>
        <time>2021-10-02T12:55:44Z</time>
      </trkpt>
      <trkpt lat="45.37873" lon="6.78959">
        <ele>2906</ele>
        <time>2021-10-02T12:55:54Z</time>
      </trkpt>
      <trkpt lat="45.37879" lon="6.78953">
        <ele>2904</ele>
        <time>2021-10-02T12:56:06Z</time>
      </trkpt>
      <trkpt lat="45.37883" lon="6.78962">
        <ele>2903</ele>
        <time>2021-10-02T12:56:36Z</time>
      </trkpt>
      <trkpt lat="45.37889" lon="6.78978">
        <ele>2902</ele>
        <time>2021-10-02T12:57:01Z</time>
      </trkpt>
      <trkpt lat="45.37892" lon="6.78995">
        <ele>2899</ele>
        <time>2021-10-02T12:57:12Z</time>
      </trkpt>
      <trkpt lat="45.37891" lon="6.79005">
        <ele>2897</ele>
        <time>2021-10-02T12:57:22Z</time>
      </trkpt>
      <trkpt lat="45.37899" lon="6.79017">
        <ele>2891</ele>
        <time>2021-10-02T12:57:52Z</time>
      </trkpt>
      <trkpt lat="45.379" lon="6.7903">
        <ele>2890</ele>
        <time>2021-10-02T12:58:04Z</time>
      </trkpt>
      <trkpt lat="45.37902" lon="6.79038">
        <ele>2886</ele>
        <time>2021-10-02T12:58:40Z</time>
      </trkpt>
      <trkpt lat="45.37908" lon="6.79038">
        <ele>2880</ele>
        <time>2021-10-02T12:59:34Z</time>
      </trkpt>
      <trkpt lat="45.37912" lon="6.7903">
        <ele>2878</ele>
        <time>2021-10-02T12:59:40Z</time>
      </trkpt>
      <trkpt lat="45.37916" lon="6.79025">
        <ele>2877</ele>
        <time>2021-10-02T12:59:52Z</time>
      </trkpt>
      <trkpt lat="45.3792" lon="6.79012">
        <ele>2873</ele>
        <time>2021-10-02T13:00:15Z</time>
      </trkpt>
      <trkpt lat="45.37922" lon="6.79005">
        <ele>2873</ele>
        <time>2021-10-02T13:00:21Z</time>
      </trkpt>
      <trkpt lat="45.37931" lon="6.78989">
        <ele>2869</ele>
        <time>2021-10-02T13:00:41Z</time>
      </trkpt>
      <trkpt lat="45.37941" lon="6.78976">
        <ele>2863</ele>
        <time>2021-10-02T13:01:16Z</time>
      </trkpt>
      <trkpt lat="45.37945" lon="6.78968">
        <ele>2862</ele>
        <time>2021-10-02T13:01:23Z</time>
      </trkpt>
      <trkpt lat="45.37952" lon="6.78969">
        <ele>2856</ele>
        <time>2021-10-02T13:01:55Z</time>
      </trkpt>
      <trkpt lat="45.37957" lon="6.78965">
        <ele>2854</ele>
        <time>2021-10-02T13:02:06Z</time>
      </trkpt>
      <trkpt lat="45.37962" lon="6.78956">
        <ele>2851</ele>
        <time>2021-10-02T13:02:18Z</time>
      </trkpt>
      <trkpt lat="45.37964" lon="6.78948">
        <ele>2851</ele>
        <time>2021-10-02T13:02:24Z</time>
      </trkpt>
      <trkpt lat="45.37967" lon="6.78942">
        <ele>2848</ele>
        <time>2021-10-02T13:02:37Z</time>
      </trkpt>
      <trkpt lat="45.37973" lon="6.7893">
        <ele>2844</ele>
        <time>2021-10-02T13:03:01Z</time>
      </trkpt>
      <trkpt lat="45.37977" lon="6.78922">
        <ele>2844</ele>
        <time>2021-10-02T13:03:15Z</time>
      </trkpt>
      <trkpt lat="45.37981" lon="6.78915">
        <ele>2843</ele>
        <time>2021-10-02T13:03:20Z</time>
      </trkpt>
      <trkpt lat="45.37982" lon="6.78908">
        <ele>2840</ele>
        <time>2021-10-02T13:03:40Z</time>
      </trkpt>
      <trkpt lat="45.37992" lon="6.78941">
        <ele>2829</ele>
        <time>2021-10-02T13:04:28Z</time>
      </trkpt>
      <trkpt lat="45.3799" lon="6.78948">
        <ele>2825</ele>
        <time>2021-10-02T13:04:35Z</time>
      </trkpt>
      <trkpt lat="45.37988" lon="6.78955">
        <ele>2826</ele>
        <time>2021-10-02T13:04:47Z</time>
      </trkpt>
      <trkpt lat="45.37997" lon="6.78953">
        <ele>2822</ele>
        <time>2021-10-02T13:05:18Z</time>
      </trkpt>
      <trkpt lat="45.38001" lon="6.78968">
        <ele>2816</ele>
        <time>2021-10-02T13:05:44Z</time>
      </trkpt>
      <trkpt lat="45.38" lon="6.78973">
        <ele>2815</ele>
        <time>2021-10-02T13:05:52Z</time>
      </trkpt>
      <trkpt lat="45.38" lon="6.78979">
        <ele>2815</ele>
        <time>2021-10-02T13:05:58Z</time>
      </trkpt>
      <trkpt lat="45.38016" lon="6.79017">
        <ele>2810</ele>
        <time>2021-10-02T13:06:37Z</time>
      </trkpt>
      <trkpt lat="45.3802" lon="6.79025">
        <ele>2808</ele>
        <time>2021-10-02T13:06:45Z</time>
      </trkpt>
      <trkpt lat="45.38034" lon="6.79044">
        <ele>2801</ele>
        <time>2021-10-02T13:07:15Z</time>
      </trkpt>
      <trkpt lat="45.38041" lon="6.79052">
        <ele>2798</ele>
        <time>2021-10-02T13:07:26Z</time>
      </trkpt>
      <trkpt lat="45.38044" lon="6.79057">
        <ele>2797</ele>
        <time>2021-10-02T13:07:40Z</time>
      </trkpt>
      <trkpt lat="45.38047" lon="6.79064">
        <ele>2795</ele>
        <time>2021-10-02T13:07:45Z</time>
      </trkpt>
      <trkpt lat="45.3805" lon="6.79069">
        <ele>2796</ele>
        <time>2021-10-02T13:07:52Z</time>
      </trkpt>
      <trkpt lat="45.38055" lon="6.79073">
        <ele>2794</ele>
        <time>2021-10-02T13:08:04Z</time>
      </trkpt>
      <trkpt lat="45.38061" lon="6.79079">
        <ele>2793</ele>
        <time>2021-10-02T13:08:09Z</time>
      </trkpt>
      <trkpt lat="45.3807" lon="6.79086">
        <ele>2790</ele>
        <time>2021-10-02T13:08:24Z</time>
      </trkpt>
      <trkpt lat="45.38078" lon="6.79082">
        <ele>2789</ele>
        <time>2021-10-02T13:08:36Z</time>
      </trkpt>
      <trkpt lat="45.38085" lon="6.79086">
        <ele>2789</ele>
        <time>2021-10-02T13:08:45Z</time>
      </trkpt>
      <trkpt lat="45.3809" lon="6.79088">
        <ele>2785</ele>
        <time>2021-10-02T13:08:57Z</time>
      </trkpt>
      <trkpt lat="45.38093" lon="6.79091">
        <ele>2785</ele>
        <time>2021-10-02T13:09:03Z</time>
      </trkpt>
      <trkpt lat="45.38102" lon="6.79096">
        <ele>2785</ele>
        <time>2021-10-02T13:09:15Z</time>
      </trkpt>
      <trkpt lat="45.38107" lon="6.79094">
        <ele>2785</ele>
        <time>2021-10-02T13:09:21Z</time>
      </trkpt>
      <trkpt lat="45.38113" lon="6.7909">
        <ele>2784</ele>
        <time>2021-10-02T13:09:27Z</time>
      </trkpt>
      <trkpt lat="45.38122" lon="6.7908">
        <ele>2783</ele>
        <time>2021-10-02T13:09:39Z</time>
      </trkpt>
      <trkpt lat="45.38132" lon="6.79076">
        <ele>2781</ele>
        <time>2021-10-02T13:09:50Z</time>
      </trkpt>
      <trkpt lat="45.38139" lon="6.79071">
        <ele>2780</ele>
        <time>2021-10-02T13:09:58Z</time>
      </trkpt>
      <trkpt lat="45.38143" lon="6.79064">
        <ele>2779</ele>
        <time>2021-10-02T13:10:02Z</time>
      </trkpt>
      <trkpt lat="45.38146" lon="6.79052">
        <ele>2777</ele>
        <time>2021-10-02T13:10:11Z</time>
      </trkpt>
      <trkpt lat="45.38149" lon="6.79045">
        <ele>2777</ele>
        <time>2021-10-02T13:10:17Z</time>
      </trkpt>
      <trkpt lat="45.38153" lon="6.79037">
        <ele>2777</ele>
        <time>2021-10-02T13:10:23Z</time>
      </trkpt>
      <trkpt lat="45.38157" lon="6.79034">
        <ele>2777</ele>
        <time>2021-10-02T13:10:32Z</time>
      </trkpt>
      <trkpt lat="45.38161" lon="6.79028">
        <ele>2774</ele>
        <time>2021-10-02T13:10:38Z</time>
      </trkpt>
      <trkpt lat="45.38166" lon="6.7903">
        <ele>2772</ele>
        <time>2021-10-02T13:10:47Z</time>
      </trkpt>
      <trkpt lat="45.38174" lon="6.79032">
        <ele>2771</ele>
        <time>2021-10-02T13:10:59Z</time>
      </trkpt>
      <trkpt lat="45.38178" lon="6.79026">
        <ele>2769</ele>
        <time>2021-10-02T13:11:05Z</time>
      </trkpt>
      <trkpt lat="45.38186" lon="6.79022">
        <ele>2766</ele>
        <time>2021-10-02T13:11:19Z</time>
      </trkpt>
      <trkpt lat="45.38187" lon="6.79016">
        <ele>2765</ele>
        <time>2021-10-02T13:11:22Z</time>
      </trkpt>
      <trkpt lat="45.38198" lon="6.79026">
        <ele>2762</ele>
        <time>2021-10-02T13:11:37Z</time>
      </trkpt>
      <trkpt lat="45.38202" lon="6.79024">
        <ele>2761</ele>
        <time>2021-10-02T13:11:42Z</time>
      </trkpt>
      <trkpt lat="45.38209" lon="6.79016">
        <ele>2757</ele>
        <time>2021-10-02T13:11:56Z</time>
      </trkpt>
      <trkpt lat="45.38212" lon="6.79024">
        <ele>2754</ele>
        <time>2021-10-02T13:12:09Z</time>
      </trkpt>
      <trkpt lat="45.38213" lon="6.79033">
        <ele>2753</ele>
        <time>2021-10-02T13:12:17Z</time>
      </trkpt>
      <trkpt lat="45.38215" lon="6.79043">
        <ele>2754</ele>
        <time>2021-10-02T13:12:35Z</time>
      </trkpt>
      <trkpt lat="45.38221" lon="6.79043">
        <ele>2752</ele>
        <time>2021-10-02T13:12:47Z</time>
      </trkpt>
      <trkpt lat="45.38223" lon="6.79035">
        <ele>2751</ele>
        <time>2021-10-02T13:12:52Z</time>
      </trkpt>
      <trkpt lat="45.38231" lon="6.7904">
        <ele>2748</ele>
        <time>2021-10-02T13:13:12Z</time>
      </trkpt>
      <trkpt lat="45.38237" lon="6.79034">
        <ele>2745</ele>
        <time>2021-10-02T13:13:30Z</time>
      </trkpt>
      <trkpt lat="45.38238" lon="6.79045">
        <ele>2744</ele>
        <time>2021-10-02T13:13:41Z</time>
      </trkpt>
      <trkpt lat="45.38239" lon="6.79054">
        <ele>2743</ele>
        <time>2021-10-02T13:13:46Z</time>
      </trkpt>
      <trkpt lat="45.38246" lon="6.79055">
        <ele>2738</ele>
        <time>2021-10-02T13:14:32Z</time>
      </trkpt>
      <trkpt lat="45.38249" lon="6.7905">
        <ele>2735</ele>
        <time>2021-10-02T13:14:42Z</time>
      </trkpt>
      <trkpt lat="45.38252" lon="6.79042">
        <ele>2733</ele>
        <time>2021-10-02T13:14:48Z</time>
      </trkpt>
      <trkpt lat="45.38257" lon="6.7905">
        <ele>2730</ele>
        <time>2021-10-02T13:15:13Z</time>
      </trkpt>
      <trkpt lat="45.38264" lon="6.79054">
        <ele>2726</ele>
        <time>2021-10-02T13:15:48Z</time>
      </trkpt>
      <trkpt lat="45.38267" lon="6.79058">
        <ele>2724</ele>
        <time>2021-10-02T13:15:52Z</time>
      </trkpt>
      <trkpt lat="45.38271" lon="6.79066">
        <ele>2724</ele>
        <time>2021-10-02T13:15:57Z</time>
      </trkpt>
      <trkpt lat="45.38274" lon="6.79074">
        <ele>2722</ele>
        <time>2021-10-02T13:16:07Z</time>
      </trkpt>
      <trkpt lat="45.38276" lon="6.79082">
        <ele>2720</ele>
        <time>2021-10-02T13:16:14Z</time>
      </trkpt>
      <trkpt lat="45.38277" lon="6.79092">
        <ele>2720</ele>
        <time>2021-10-02T13:16:22Z</time>
      </trkpt>
      <trkpt lat="45.38281" lon="6.79092">
        <ele>2717</ele>
        <time>2021-10-02T13:16:36Z</time>
      </trkpt>
      <trkpt lat="45.38287" lon="6.79078">
        <ele>2714</ele>
        <time>2021-10-02T13:16:52Z</time>
      </trkpt>
      <trkpt lat="45.38293" lon="6.79073">
        <ele>2710</ele>
        <time>2021-10-02T13:17:06Z</time>
      </trkpt>
      <trkpt lat="45.38299" lon="6.79068">
        <ele>2708</ele>
        <time>2021-10-02T13:17:18Z</time>
      </trkpt>
      <trkpt lat="45.38306" lon="6.79067">
        <ele>2705</ele>
        <time>2021-10-02T13:17:30Z</time>
      </trkpt>
      <trkpt lat="45.38312" lon="6.79071">
        <ele>2702</ele>
        <time>2021-10-02T13:17:42Z</time>
      </trkpt>
      <trkpt lat="45.38318" lon="6.79074">
        <ele>2701</ele>
        <time>2021-10-02T13:17:48Z</time>
      </trkpt>
      <trkpt lat="45.38324" lon="6.79073">
        <ele>2700</ele>
        <time>2021-10-02T13:17:54Z</time>
      </trkpt>
      <trkpt lat="45.38329" lon="6.79076">
        <ele>2699</ele>
        <time>2021-10-02T13:18:00Z</time>
      </trkpt>
      <trkpt lat="45.38334" lon="6.79084">
        <ele>2698</ele>
        <time>2021-10-02T13:18:10Z</time>
      </trkpt>
      <trkpt lat="45.38338" lon="6.79095">
        <ele>2695</ele>
        <time>2021-10-02T13:18:22Z</time>
      </trkpt>
      <trkpt lat="45.38345" lon="6.79095">
        <ele>2695</ele>
        <time>2021-10-02T13:18:28Z</time>
      </trkpt>
      <trkpt lat="45.38351" lon="6.79096">
        <ele>2695</ele>
        <time>2021-10-02T13:18:33Z</time>
      </trkpt>
      <trkpt lat="45.38357" lon="6.79092">
        <ele>2694</ele>
        <time>2021-10-02T13:18:38Z</time>
      </trkpt>
      <trkpt lat="45.38362" lon="6.79087">
        <ele>2693</ele>
        <time>2021-10-02T13:18:46Z</time>
      </trkpt>
      <trkpt lat="45.38368" lon="6.79087">
        <ele>2692</ele>
        <time>2021-10-02T13:18:53Z</time>
      </trkpt>
      <trkpt lat="45.38373" lon="6.7909">
        <ele>2691</ele>
        <time>2021-10-02T13:19:03Z</time>
      </trkpt>
      <trkpt lat="45.38379" lon="6.79091">
        <ele>2688</ele>
        <time>2021-10-02T13:19:15Z</time>
      </trkpt>
      <trkpt lat="45.38384" lon="6.79094">
        <ele>2686</ele>
        <time>2021-10-02T13:19:28Z</time>
      </trkpt>
      <trkpt lat="45.38387" lon="6.79098">
        <ele>2685</ele>
        <time>2021-10-02T13:19:32Z</time>
      </trkpt>
      <trkpt lat="45.38394" lon="6.79101">
        <ele>2681</ele>
        <time>2021-10-02T13:19:52Z</time>
      </trkpt>
      <trkpt lat="45.38398" lon="6.79092">
        <ele>2678</ele>
        <time>2021-10-02T13:20:03Z</time>
      </trkpt>
      <trkpt lat="45.38404" lon="6.79093">
        <ele>2675</ele>
        <time>2021-10-02T13:20:15Z</time>
      </trkpt>
      <trkpt lat="45.38412" lon="6.79094">
        <ele>2673</ele>
        <time>2021-10-02T13:20:34Z</time>
      </trkpt>
      <trkpt lat="45.38419" lon="6.79092">
        <ele>2669</ele>
        <time>2021-10-02T13:20:52Z</time>
      </trkpt>
      <trkpt lat="45.38425" lon="6.79091">
        <ele>2666</ele>
        <time>2021-10-02T13:21:10Z</time>
      </trkpt>
      <trkpt lat="45.38437" lon="6.79096">
        <ele>2659</ele>
        <time>2021-10-02T13:21:51Z</time>
      </trkpt>
      <trkpt lat="45.38442" lon="6.79108">
        <ele>2657</ele>
        <time>2021-10-02T13:22:01Z</time>
      </trkpt>
      <trkpt lat="45.38446" lon="6.79117">
        <ele>2657</ele>
        <time>2021-10-02T13:22:08Z</time>
      </trkpt>
      <trkpt lat="45.38454" lon="6.79124">
        <ele>2655</ele>
        <time>2021-10-02T13:22:23Z</time>
      </trkpt>
      <trkpt lat="45.3846" lon="6.79124">
        <ele>2653</ele>
        <time>2021-10-02T13:22:30Z</time>
      </trkpt>
      <trkpt lat="45.38467" lon="6.79127">
        <ele>2652</ele>
        <time>2021-10-02T13:22:42Z</time>
      </trkpt>
      <trkpt lat="45.38473" lon="6.79126">
        <ele>2650</ele>
        <time>2021-10-02T13:22:54Z</time>
      </trkpt>
      <trkpt lat="45.38487" lon="6.79107">
        <ele>2645</ele>
        <time>2021-10-02T13:23:18Z</time>
      </trkpt>
      <trkpt lat="45.38493" lon="6.79106">
        <ele>2644</ele>
        <time>2021-10-02T13:23:25Z</time>
      </trkpt>
      <trkpt lat="45.38497" lon="6.79097">
        <ele>2642</ele>
        <time>2021-10-02T13:23:37Z</time>
      </trkpt>
      <trkpt lat="45.38503" lon="6.79092">
        <ele>2639</ele>
        <time>2021-10-02T13:23:49Z</time>
      </trkpt>
      <trkpt lat="45.38518" lon="6.7909">
        <ele>2635</ele>
        <time>2021-10-02T13:24:13Z</time>
      </trkpt>
      <trkpt lat="45.38531" lon="6.79099">
        <ele>2629</ele>
        <time>2021-10-02T13:24:37Z</time>
      </trkpt>
      <trkpt lat="45.38533" lon="6.79092">
        <ele>2628</ele>
        <time>2021-10-02T13:24:42Z</time>
      </trkpt>
      <trkpt lat="45.38534" lon="6.79083">
        <ele>2627</ele>
        <time>2021-10-02T13:24:47Z</time>
      </trkpt>
      <trkpt lat="45.38538" lon="6.79074">
        <ele>2626</ele>
        <time>2021-10-02T13:24:56Z</time>
      </trkpt>
      <trkpt lat="45.38537" lon="6.79064">
        <ele>2623</ele>
        <time>2021-10-02T13:25:10Z</time>
      </trkpt>
      <trkpt lat="45.38544" lon="6.79062">
        <ele>2619</ele>
        <time>2021-10-02T13:25:33Z</time>
      </trkpt>
      <trkpt lat="45.38551" lon="6.79054">
        <ele>2617</ele>
        <time>2021-10-02T13:25:45Z</time>
      </trkpt>
      <trkpt lat="45.38555" lon="6.79046">
        <ele>2616</ele>
        <time>2021-10-02T13:25:53Z</time>
      </trkpt>
      <trkpt lat="45.38557" lon="6.79038">
        <ele>2614</ele>
        <time>2021-10-02T13:26:02Z</time>
      </trkpt>
      <trkpt lat="45.38565" lon="6.79043">
        <ele>2611</ele>
        <time>2021-10-02T13:26:19Z</time>
      </trkpt>
      <trkpt lat="45.38571" lon="6.79037">
        <ele>2608</ele>
        <time>2021-10-02T13:26:34Z</time>
      </trkpt>
      <trkpt lat="45.38571" lon="6.79023">
        <ele>2606</ele>
        <time>2021-10-02T13:26:46Z</time>
      </trkpt>
      <trkpt lat="45.38575" lon="6.79018">
        <ele>2603</ele>
        <time>2021-10-02T13:26:59Z</time>
      </trkpt>
      <trkpt lat="45.38577" lon="6.79005">
        <ele>2600</ele>
        <time>2021-10-02T13:27:11Z</time>
      </trkpt>
      <trkpt lat="45.38582" lon="6.78999">
        <ele>2598</ele>
        <time>2021-10-02T13:27:25Z</time>
      </trkpt>
      <trkpt lat="45.38591" lon="6.79005">
        <ele>2596</ele>
        <time>2021-10-02T13:27:38Z</time>
      </trkpt>
      <trkpt lat="45.38598" lon="6.79003">
        <ele>2593</ele>
        <time>2021-10-02T13:27:49Z</time>
      </trkpt>
      <trkpt lat="45.38605" lon="6.78998">
        <ele>2591</ele>
        <time>2021-10-02T13:28:01Z</time>
      </trkpt>
      <trkpt lat="45.38612" lon="6.79001">
        <ele>2588</ele>
        <time>2021-10-02T13:28:13Z</time>
      </trkpt>
      <trkpt lat="45.38617" lon="6.78994">
        <ele>2588</ele>
        <time>2021-10-02T13:28:19Z</time>
      </trkpt>
      <trkpt lat="45.38625" lon="6.78982">
        <ele>2585</ele>
        <time>2021-10-02T13:28:34Z</time>
      </trkpt>
      <trkpt lat="45.38631" lon="6.78978">
        <ele>2583</ele>
        <time>2021-10-02T13:28:55Z</time>
      </trkpt>
      <trkpt lat="45.38636" lon="6.78973">
        <ele>2579</ele>
        <time>2021-10-02T13:29:10Z</time>
      </trkpt>
      <trkpt lat="45.38645" lon="6.78971">
        <ele>2576</ele>
        <time>2021-10-02T13:29:21Z</time>
      </trkpt>
      <trkpt lat="45.3865" lon="6.78971">
        <ele>2576</ele>
        <time>2021-10-02T13:29:33Z</time>
      </trkpt>
      <trkpt lat="45.38657" lon="6.78978">
        <ele>2572</ele>
        <time>2021-10-02T13:29:45Z</time>
      </trkpt>
      <trkpt lat="45.38662" lon="6.7898">
        <ele>2572</ele>
        <time>2021-10-02T13:29:51Z</time>
      </trkpt>
      <trkpt lat="45.38668" lon="6.78982">
        <ele>2570</ele>
        <time>2021-10-02T13:30:05Z</time>
      </trkpt>
      <trkpt lat="45.38674" lon="6.78976">
        <ele>2566</ele>
        <time>2021-10-02T13:30:22Z</time>
      </trkpt>
      <trkpt lat="45.38682" lon="6.78959">
        <ele>2563</ele>
        <time>2021-10-02T13:30:38Z</time>
      </trkpt>
      <trkpt lat="45.38689" lon="6.78954">
        <ele>2560</ele>
        <time>2021-10-02T13:30:52Z</time>
      </trkpt>
      <trkpt lat="45.38703" lon="6.78936">
        <ele>2553</ele>
        <time>2021-10-02T13:31:26Z</time>
      </trkpt>
      <trkpt lat="45.38709" lon="6.78922">
        <ele>2550</ele>
        <time>2021-10-02T13:31:38Z</time>
      </trkpt>
      <trkpt lat="45.38715" lon="6.78917">
        <ele>2549</ele>
        <time>2021-10-02T13:31:46Z</time>
      </trkpt>
      <trkpt lat="45.38718" lon="6.78909">
        <ele>2549</ele>
        <time>2021-10-02T13:31:50Z</time>
      </trkpt>
      <trkpt lat="45.38722" lon="6.78903">
        <ele>2549</ele>
        <time>2021-10-02T13:31:55Z</time>
      </trkpt>
      <trkpt lat="45.3872" lon="6.78897">
        <ele>2548</ele>
        <time>2021-10-02T13:31:59Z</time>
      </trkpt>
      <trkpt lat="45.3872" lon="6.78888">
        <ele>2546</ele>
        <time>2021-10-02T13:32:07Z</time>
      </trkpt>
      <trkpt lat="45.38727" lon="6.78889">
        <ele>2543</ele>
        <time>2021-10-02T13:32:19Z</time>
      </trkpt>
      <trkpt lat="45.38733" lon="6.78892">
        <ele>2542</ele>
        <time>2021-10-02T13:32:31Z</time>
      </trkpt>
      <trkpt lat="45.38737" lon="6.78894">
        <ele>2537</ele>
        <time>2021-10-02T13:33:01Z</time>
      </trkpt>
      <trkpt lat="45.3874" lon="6.78904">
        <ele>2536</ele>
        <time>2021-10-02T13:33:13Z</time>
      </trkpt>
      <trkpt lat="45.38742" lon="6.78911">
        <ele>2534</ele>
        <time>2021-10-02T13:33:19Z</time>
      </trkpt>
      <trkpt lat="45.38748" lon="6.78918">
        <ele>2533</ele>
        <time>2021-10-02T13:33:29Z</time>
      </trkpt>
      <trkpt lat="45.38754" lon="6.7892">
        <ele>2529</ele>
        <time>2021-10-02T13:33:41Z</time>
      </trkpt>
      <trkpt lat="45.38759" lon="6.78924">
        <ele>2530</ele>
        <time>2021-10-02T13:33:49Z</time>
      </trkpt>
      <trkpt lat="45.38762" lon="6.78928">
        <ele>2529</ele>
        <time>2021-10-02T13:33:55Z</time>
      </trkpt>
      <trkpt lat="45.3876" lon="6.78942">
        <ele>2529</ele>
        <time>2021-10-02T13:34:14Z</time>
      </trkpt>
      <trkpt lat="45.3876" lon="6.7895">
        <ele>2528</ele>
        <time>2021-10-02T13:34:20Z</time>
      </trkpt>
      <trkpt lat="45.38764" lon="6.78961">
        <ele>2529</ele>
        <time>2021-10-02T13:34:28Z</time>
      </trkpt>
      <trkpt lat="45.3877" lon="6.78965">
        <ele>2528</ele>
        <time>2021-10-02T13:34:42Z</time>
      </trkpt>
      <trkpt lat="45.38777" lon="6.78959">
        <ele>2525</ele>
        <time>2021-10-02T13:35:01Z</time>
      </trkpt>
      <trkpt lat="45.38787" lon="6.78951">
        <ele>2524</ele>
        <time>2021-10-02T13:35:14Z</time>
      </trkpt>
      <trkpt lat="45.38793" lon="6.78946">
        <ele>2522</ele>
        <time>2021-10-02T13:35:22Z</time>
      </trkpt>
      <trkpt lat="45.388" lon="6.78945">
        <ele>2521</ele>
        <time>2021-10-02T13:35:28Z</time>
      </trkpt>
      <trkpt lat="45.38804" lon="6.78939">
        <ele>2520</ele>
        <time>2021-10-02T13:35:33Z</time>
      </trkpt>
      <trkpt lat="45.3881" lon="6.78936">
        <ele>2519</ele>
        <time>2021-10-02T13:35:39Z</time>
      </trkpt>
      <trkpt lat="45.38816" lon="6.78937">
        <ele>2518</ele>
        <time>2021-10-02T13:35:45Z</time>
      </trkpt>
      <trkpt lat="45.38823" lon="6.78932">
        <ele>2518</ele>
        <time>2021-10-02T13:35:55Z</time>
      </trkpt>
      <trkpt lat="45.38829" lon="6.78931">
        <ele>2518</ele>
        <time>2021-10-02T13:36:01Z</time>
      </trkpt>
      <trkpt lat="45.38835" lon="6.78931">
        <ele>2517</ele>
        <time>2021-10-02T13:36:06Z</time>
      </trkpt>
      <trkpt lat="45.38841" lon="6.78924">
        <ele>2516</ele>
        <time>2021-10-02T13:36:13Z</time>
      </trkpt>
      <trkpt lat="45.38845" lon="6.78919">
        <ele>2517</ele>
        <time>2021-10-02T13:36:17Z</time>
      </trkpt>
      <trkpt lat="45.38854" lon="6.78911">
        <ele>2518</ele>
        <time>2021-10-02T13:36:30Z</time>
      </trkpt>
      <trkpt lat="45.38862" lon="6.78906">
        <ele>2516</ele>
        <time>2021-10-02T13:36:39Z</time>
      </trkpt>
      <trkpt lat="45.38867" lon="6.78902">
        <ele>2517</ele>
        <time>2021-10-02T13:36:44Z</time>
      </trkpt>
      <trkpt lat="45.38872" lon="6.78896">
        <ele>2516</ele>
        <time>2021-10-02T13:36:48Z</time>
      </trkpt>
      <trkpt lat="45.38875" lon="6.7889">
        <ele>2516</ele>
        <time>2021-10-02T13:36:53Z</time>
      </trkpt>
      <trkpt lat="45.38879" lon="6.78884">
        <ele>2515</ele>
        <time>2021-10-02T13:36:59Z</time>
      </trkpt>
      <trkpt lat="45.38881" lon="6.78877">
        <ele>2515</ele>
        <time>2021-10-02T13:37:05Z</time>
      </trkpt>
      <trkpt lat="45.38887" lon="6.7887">
        <ele>2516</ele>
        <time>2021-10-02T13:37:18Z</time>
      </trkpt>
      <trkpt lat="45.38893" lon="6.78864">
        <ele>2516</ele>
        <time>2021-10-02T13:37:32Z</time>
      </trkpt>
      <trkpt lat="45.389" lon="6.78863">
        <ele>2517</ele>
        <time>2021-10-02T13:37:39Z</time>
      </trkpt>
      <trkpt lat="45.38905" lon="6.78858">
        <ele>2516</ele>
        <time>2021-10-02T13:37:44Z</time>
      </trkpt>
      <trkpt lat="45.3891" lon="6.78856">
        <ele>2514</ele>
        <time>2021-10-02T13:37:49Z</time>
      </trkpt>
      <trkpt lat="45.38915" lon="6.7885">
        <ele>2514</ele>
        <time>2021-10-02T13:37:53Z</time>
      </trkpt>
      <trkpt lat="45.38918" lon="6.7884">
        <ele>2514</ele>
        <time>2021-10-02T13:38:05Z</time>
      </trkpt>
      <trkpt lat="45.38926" lon="6.78834">
        <ele>2513</ele>
        <time>2021-10-02T13:38:18Z</time>
      </trkpt>
      <trkpt lat="45.38934" lon="6.78813">
        <ele>2510</ele>
        <time>2021-10-02T13:38:36Z</time>
      </trkpt>
      <trkpt lat="45.3893" lon="6.78802">
        <ele>2508</ele>
        <time>2021-10-02T13:38:45Z</time>
      </trkpt>
      <trkpt lat="45.38929" lon="6.78781">
        <ele>2504</ele>
        <time>2021-10-02T13:39:06Z</time>
      </trkpt>
      <trkpt lat="45.38927" lon="6.78774">
        <ele>2503</ele>
        <time>2021-10-02T13:39:11Z</time>
      </trkpt>
      <trkpt lat="45.3893" lon="6.78736">
        <ele>2497</ele>
        <time>2021-10-02T13:39:48Z</time>
      </trkpt>
      <trkpt lat="45.38933" lon="6.78725">
        <ele>2494</ele>
        <time>2021-10-02T13:40:00Z</time>
      </trkpt>
      <trkpt lat="45.38937" lon="6.78714">
        <ele>2492</ele>
        <time>2021-10-02T13:40:11Z</time>
      </trkpt>
      <trkpt lat="45.38938" lon="6.78704">
        <ele>2492</ele>
        <time>2021-10-02T13:40:18Z</time>
      </trkpt>
      <trkpt lat="45.38942" lon="6.78691">
        <ele>2489</ele>
        <time>2021-10-02T13:40:31Z</time>
      </trkpt>
      <trkpt lat="45.38944" lon="6.78682">
        <ele>2487</ele>
        <time>2021-10-02T13:40:38Z</time>
      </trkpt>
      <trkpt lat="45.38952" lon="6.78668">
        <ele>2486</ele>
        <time>2021-10-02T13:40:47Z</time>
      </trkpt>
      <trkpt lat="45.38955" lon="6.7866">
        <ele>2486</ele>
        <time>2021-10-02T13:40:51Z</time>
      </trkpt>
      <trkpt lat="45.38957" lon="6.78652">
        <ele>2486</ele>
        <time>2021-10-02T13:40:59Z</time>
      </trkpt>
      <trkpt lat="45.38957" lon="6.78643">
        <ele>2485</ele>
        <time>2021-10-02T13:41:04Z</time>
      </trkpt>
      <trkpt lat="45.38959" lon="6.78636">
        <ele>2485</ele>
        <time>2021-10-02T13:41:09Z</time>
      </trkpt>
      <trkpt lat="45.38958" lon="6.78626">
        <ele>2485</ele>
        <time>2021-10-02T13:41:17Z</time>
      </trkpt>
      <trkpt lat="45.38961" lon="6.78615">
        <ele>2484</ele>
        <time>2021-10-02T13:41:25Z</time>
      </trkpt>
      <trkpt lat="45.38962" lon="6.78607">
        <ele>2485</ele>
        <time>2021-10-02T13:41:31Z</time>
      </trkpt>
      <trkpt lat="45.38959" lon="6.78597">
        <ele>2485</ele>
        <time>2021-10-02T13:41:39Z</time>
      </trkpt>
      <trkpt lat="45.38962" lon="6.78587">
        <ele>2483</ele>
        <time>2021-10-02T13:41:54Z</time>
      </trkpt>
      <trkpt lat="45.38967" lon="6.78581">
        <ele>2482</ele>
        <time>2021-10-02T13:41:59Z</time>
      </trkpt>
      <trkpt lat="45.38971" lon="6.78576">
        <ele>2483</ele>
        <time>2021-10-02T13:42:05Z</time>
      </trkpt>
      <trkpt lat="45.38982" lon="6.78563">
        <ele>2481</ele>
        <time>2021-10-02T13:42:20Z</time>
      </trkpt>
      <trkpt lat="45.38985" lon="6.78557">
        <ele>2481</ele>
        <time>2021-10-02T13:42:25Z</time>
      </trkpt>
      <trkpt lat="45.3899" lon="6.78552">
        <ele>2480</ele>
        <time>2021-10-02T13:42:30Z</time>
      </trkpt>
      <trkpt lat="45.38994" lon="6.78543">
        <ele>2480</ele>
        <time>2021-10-02T13:42:37Z</time>
      </trkpt>
      <trkpt lat="45.38998" lon="6.78538">
        <ele>2480</ele>
        <time>2021-10-02T13:42:42Z</time>
      </trkpt>
      <trkpt lat="45.39" lon="6.7853">
        <ele>2479</ele>
        <time>2021-10-02T13:42:48Z</time>
      </trkpt>
      <trkpt lat="45.39004" lon="6.78522">
        <ele>2479</ele>
        <time>2021-10-02T13:42:53Z</time>
      </trkpt>
      <trkpt lat="45.39003" lon="6.78514">
        <ele>2478</ele>
        <time>2021-10-02T13:42:59Z</time>
      </trkpt>
      <trkpt lat="45.39001" lon="6.78506">
        <ele>2478</ele>
        <time>2021-10-02T13:43:05Z</time>
      </trkpt>
      <trkpt lat="45.38998" lon="6.78487">
        <ele>2478</ele>
        <time>2021-10-02T13:43:47Z</time>
      </trkpt>
      <trkpt lat="45.38999" lon="6.78471">
        <ele>2475</ele>
        <time>2021-10-02T13:45:08Z</time>
      </trkpt>
      <trkpt lat="45.38999" lon="6.78464">
        <ele>2475</ele>
        <time>2021-10-02T13:45:12Z</time>
      </trkpt>
      <trkpt lat="45.39" lon="6.78456">
        <ele>2475</ele>
        <time>2021-10-02T13:45:20Z</time>
      </trkpt>
      <trkpt lat="45.39" lon="6.78446">
        <ele>2476</ele>
        <time>2021-10-02T13:45:26Z</time>
      </trkpt>
      <trkpt lat="45.38998" lon="6.78431">
        <ele>2475</ele>
        <time>2021-10-02T13:45:34Z</time>
      </trkpt>
      <trkpt lat="45.38996" lon="6.78421">
        <ele>2475</ele>
        <time>2021-10-02T13:45:40Z</time>
      </trkpt>
      <trkpt lat="45.38996" lon="6.78414">
        <ele>2475</ele>
        <time>2021-10-02T13:45:45Z</time>
      </trkpt>
      <trkpt lat="45.38996" lon="6.78404">
        <ele>2473</ele>
        <time>2021-10-02T13:45:59Z</time>
      </trkpt>
      <trkpt lat="45.38994" lon="6.78395">
        <ele>2473</ele>
        <time>2021-10-02T13:46:05Z</time>
      </trkpt>
      <trkpt lat="45.38993" lon="6.78387">
        <ele>2474</ele>
        <time>2021-10-02T13:46:10Z</time>
      </trkpt>
      <trkpt lat="45.38992" lon="6.78378">
        <ele>2473</ele>
        <time>2021-10-02T13:46:16Z</time>
      </trkpt>
      <trkpt lat="45.38991" lon="6.78369">
        <ele>2474</ele>
        <time>2021-10-02T13:46:21Z</time>
      </trkpt>
      <trkpt lat="45.38989" lon="6.7836">
        <ele>2473</ele>
        <time>2021-10-02T13:46:26Z</time>
      </trkpt>
      <trkpt lat="45.38982" lon="6.78349">
        <ele>2474</ele>
        <time>2021-10-02T13:46:39Z</time>
      </trkpt>
      <trkpt lat="45.38978" lon="6.7834">
        <ele>2475</ele>
        <time>2021-10-02T13:47:00Z</time>
      </trkpt>
      <trkpt lat="45.38974" lon="6.78334">
        <ele>2480</ele>
        <time>2021-10-02T13:47:24Z</time>
      </trkpt>
      <trkpt lat="45.38974" lon="6.7832">
        <ele>2482</ele>
        <time>2021-10-02T13:47:45Z</time>
      </trkpt>
      <trkpt lat="45.38977" lon="6.78308">
        <ele>2482</ele>
        <time>2021-10-02T13:47:57Z</time>
      </trkpt>
      <trkpt lat="45.38976" lon="6.78299">
        <ele>2483</ele>
        <time>2021-10-02T13:48:03Z</time>
      </trkpt>
      <trkpt lat="45.38972" lon="6.78294">
        <ele>2483</ele>
        <time>2021-10-02T13:48:11Z</time>
      </trkpt>
      <trkpt lat="45.38968" lon="6.78286">
        <ele>2482</ele>
        <time>2021-10-02T13:48:16Z</time>
      </trkpt>
      <trkpt lat="45.38964" lon="6.78273">
        <ele>2481</ele>
        <time>2021-10-02T13:48:30Z</time>
      </trkpt>
      <trkpt lat="45.38962" lon="6.78259">
        <ele>2482</ele>
        <time>2021-10-02T13:48:43Z</time>
      </trkpt>
      <trkpt lat="45.38956" lon="6.78235">
        <ele>2478</ele>
        <time>2021-10-02T13:49:08Z</time>
      </trkpt>
      <trkpt lat="45.38954" lon="6.78228">
        <ele>2476</ele>
        <time>2021-10-02T13:49:16Z</time>
      </trkpt>
      <trkpt lat="45.3896" lon="6.78217">
        <ele>2474</ele>
        <time>2021-10-02T13:49:28Z</time>
      </trkpt>
      <trkpt lat="45.38957" lon="6.78206">
        <ele>2472</ele>
        <time>2021-10-02T13:49:41Z</time>
      </trkpt>
      <trkpt lat="45.38949" lon="6.78188">
        <ele>2470</ele>
        <time>2021-10-02T13:49:59Z</time>
      </trkpt>
      <trkpt lat="45.38948" lon="6.78179">
        <ele>2467</ele>
        <time>2021-10-02T13:50:16Z</time>
      </trkpt>
      <trkpt lat="45.38941" lon="6.7817">
        <ele>2465</ele>
        <time>2021-10-02T13:50:27Z</time>
      </trkpt>
      <trkpt lat="45.38938" lon="6.78158">
        <ele>2464</ele>
        <time>2021-10-02T13:50:35Z</time>
      </trkpt>
      <trkpt lat="45.38935" lon="6.7815">
        <ele>2463</ele>
        <time>2021-10-02T13:50:40Z</time>
      </trkpt>
      <trkpt lat="45.38934" lon="6.78142">
        <ele>2463</ele>
        <time>2021-10-02T13:50:46Z</time>
      </trkpt>
      <trkpt lat="45.38934" lon="6.78123">
        <ele>2462</ele>
        <time>2021-10-02T13:50:58Z</time>
      </trkpt>
      <trkpt lat="45.38926" lon="6.78097">
        <ele>2462</ele>
        <time>2021-10-02T13:51:15Z</time>
      </trkpt>
      <trkpt lat="45.38922" lon="6.78082">
        <ele>2460</ele>
        <time>2021-10-02T13:51:24Z</time>
      </trkpt>
      <trkpt lat="45.38921" lon="6.78074">
        <ele>2459</ele>
        <time>2021-10-02T13:51:29Z</time>
      </trkpt>
      <trkpt lat="45.38923" lon="6.78062">
        <ele>2459</ele>
        <time>2021-10-02T13:51:39Z</time>
      </trkpt>
      <trkpt lat="45.3892" lon="6.78047">
        <ele>2458</ele>
        <time>2021-10-02T13:51:49Z</time>
      </trkpt>
      <trkpt lat="45.38927" lon="6.78034">
        <ele>2457</ele>
        <time>2021-10-02T13:51:59Z</time>
      </trkpt>
      <trkpt lat="45.38931" lon="6.7801">
        <ele>2455</ele>
        <time>2021-10-02T13:52:15Z</time>
      </trkpt>
      <trkpt lat="45.38927" lon="6.77994">
        <ele>2451</ele>
        <time>2021-10-02T13:52:29Z</time>
      </trkpt>
      <trkpt lat="45.38924" lon="6.77987">
        <ele>2451</ele>
        <time>2021-10-02T13:52:35Z</time>
      </trkpt>
      <trkpt lat="45.38925" lon="6.77975">
        <ele>2450</ele>
        <time>2021-10-02T13:52:43Z</time>
      </trkpt>
      <trkpt lat="45.38925" lon="6.77966">
        <ele>2450</ele>
        <time>2021-10-02T13:52:49Z</time>
      </trkpt>
      <trkpt lat="45.38927" lon="6.77958">
        <ele>2450</ele>
        <time>2021-10-02T13:52:55Z</time>
      </trkpt>
      <trkpt lat="45.38927" lon="6.77948">
        <ele>2449</ele>
        <time>2021-10-02T13:53:01Z</time>
      </trkpt>
      <trkpt lat="45.38927" lon="6.77939">
        <ele>2450</ele>
        <time>2021-10-02T13:53:06Z</time>
      </trkpt>
      <trkpt lat="45.38919" lon="6.77917">
        <ele>2449</ele>
        <time>2021-10-02T13:53:22Z</time>
      </trkpt>
      <trkpt lat="45.38919" lon="6.77898">
        <ele>2447</ele>
        <time>2021-10-02T13:53:36Z</time>
      </trkpt>
      <trkpt lat="45.38918" lon="6.77888">
        <ele>2448</ele>
        <time>2021-10-02T13:53:44Z</time>
      </trkpt>
      <trkpt lat="45.38922" lon="6.77871">
        <ele>2446</ele>
        <time>2021-10-02T13:53:59Z</time>
      </trkpt>
      <trkpt lat="45.38922" lon="6.77856">
        <ele>2449</ele>
        <time>2021-10-02T13:54:11Z</time>
      </trkpt>
      <trkpt lat="45.38919" lon="6.77836">
        <ele>2445</ele>
        <time>2021-10-02T13:54:25Z</time>
      </trkpt>
      <trkpt lat="45.38921" lon="6.77828">
        <ele>2444</ele>
        <time>2021-10-02T13:54:31Z</time>
      </trkpt>
      <trkpt lat="45.38921" lon="6.7782">
        <ele>2444</ele>
        <time>2021-10-02T13:54:36Z</time>
      </trkpt>
      <trkpt lat="45.38922" lon="6.77809">
        <ele>2444</ele>
        <time>2021-10-02T13:54:45Z</time>
      </trkpt>
      <trkpt lat="45.38924" lon="6.77802">
        <ele>2445</ele>
        <time>2021-10-02T13:54:50Z</time>
      </trkpt>
      <trkpt lat="45.38926" lon="6.77794">
        <ele>2444</ele>
        <time>2021-10-02T13:54:55Z</time>
      </trkpt>
      <trkpt lat="45.38922" lon="6.77782">
        <ele>2442</ele>
        <time>2021-10-02T13:55:06Z</time>
      </trkpt>
      <trkpt lat="45.38919" lon="6.77776">
        <ele>2439</ele>
        <time>2021-10-02T13:55:24Z</time>
      </trkpt>
      <trkpt lat="45.38923" lon="6.77767">
        <ele>2437</ele>
        <time>2021-10-02T13:56:06Z</time>
      </trkpt>
      <trkpt lat="45.38918" lon="6.77759">
        <ele>2435</ele>
        <time>2021-10-02T13:56:19Z</time>
      </trkpt>
      <trkpt lat="45.38916" lon="6.77751">
        <ele>2433</ele>
        <time>2021-10-02T13:56:31Z</time>
      </trkpt>
      <trkpt lat="45.38922" lon="6.77732">
        <ele>2429</ele>
        <time>2021-10-02T13:56:50Z</time>
      </trkpt>
      <trkpt lat="45.38928" lon="6.7773">
        <ele>2428</ele>
        <time>2021-10-02T13:56:58Z</time>
      </trkpt>
      <trkpt lat="45.38932" lon="6.77724">
        <ele>2426</ele>
        <time>2021-10-02T13:57:04Z</time>
      </trkpt>
      <trkpt lat="45.38928" lon="6.77716">
        <ele>2425</ele>
        <time>2021-10-02T13:57:13Z</time>
      </trkpt>
      <trkpt lat="45.38933" lon="6.77707">
        <ele>2423</ele>
        <time>2021-10-02T13:57:28Z</time>
      </trkpt>
      <trkpt lat="45.38936" lon="6.777">
        <ele>2419</ele>
        <time>2021-10-02T13:57:51Z</time>
      </trkpt>
      <trkpt lat="45.38945" lon="6.77697">
        <ele>2412</ele>
        <time>2021-10-02T13:58:35Z</time>
      </trkpt>
      <trkpt lat="45.38959" lon="6.77682">
        <ele>2407</ele>
        <time>2021-10-02T13:58:54Z</time>
      </trkpt>
      <trkpt lat="45.38961" lon="6.77674">
        <ele>2407</ele>
        <time>2021-10-02T13:59:00Z</time>
      </trkpt>
      <trkpt lat="45.38962" lon="6.77664">
        <ele>2405</ele>
        <time>2021-10-02T13:59:09Z</time>
      </trkpt>
      <trkpt lat="45.38964" lon="6.77655">
        <ele>2403</ele>
        <time>2021-10-02T13:59:16Z</time>
      </trkpt>
      <trkpt lat="45.38966" lon="6.77646">
        <ele>2401</ele>
        <time>2021-10-02T13:59:27Z</time>
      </trkpt>
      <trkpt lat="45.38963" lon="6.77637">
        <ele>2401</ele>
        <time>2021-10-02T13:59:32Z</time>
      </trkpt>
      <trkpt lat="45.38963" lon="6.77628">
        <ele>2399</ele>
        <time>2021-10-02T13:59:42Z</time>
      </trkpt>
      <trkpt lat="45.38963" lon="6.77618">
        <ele>2398</ele>
        <time>2021-10-02T13:59:47Z</time>
      </trkpt>
      <trkpt lat="45.38966" lon="6.77612">
        <ele>2399</ele>
        <time>2021-10-02T13:59:54Z</time>
      </trkpt>
      <trkpt lat="45.38963" lon="6.77589">
        <ele>2396</ele>
        <time>2021-10-02T14:00:11Z</time>
      </trkpt>
      <trkpt lat="45.38958" lon="6.77583">
        <ele>2395</ele>
        <time>2021-10-02T14:00:17Z</time>
      </trkpt>
      <trkpt lat="45.38952" lon="6.77579">
        <ele>2396</ele>
        <time>2021-10-02T14:00:24Z</time>
      </trkpt>
      <trkpt lat="45.38957" lon="6.77572">
        <ele>2391</ele>
        <time>2021-10-02T14:00:50Z</time>
      </trkpt>
      <trkpt lat="45.38961" lon="6.77565">
        <ele>2391</ele>
        <time>2021-10-02T14:00:58Z</time>
      </trkpt>
      <trkpt lat="45.38962" lon="6.77556">
        <ele>2390</ele>
        <time>2021-10-02T14:01:03Z</time>
      </trkpt>
      <trkpt lat="45.38955" lon="6.7755">
        <ele>2389</ele>
        <time>2021-10-02T14:01:11Z</time>
      </trkpt>
      <trkpt lat="45.38954" lon="6.77543">
        <ele>2387</ele>
        <time>2021-10-02T14:01:19Z</time>
      </trkpt>
      <trkpt lat="45.38951" lon="6.77532">
        <ele>2386</ele>
        <time>2021-10-02T14:01:31Z</time>
      </trkpt>
      <trkpt lat="45.38952" lon="6.77524">
        <ele>2384</ele>
        <time>2021-10-02T14:01:38Z</time>
      </trkpt>
      <trkpt lat="45.38958" lon="6.77516">
        <ele>2383</ele>
        <time>2021-10-02T14:01:50Z</time>
      </trkpt>
      <trkpt lat="45.38968" lon="6.77508">
        <ele>2380</ele>
        <time>2021-10-02T14:02:02Z</time>
      </trkpt>
      <trkpt lat="45.38977" lon="6.77492">
        <ele>2377</ele>
        <time>2021-10-02T14:02:19Z</time>
      </trkpt>
      <trkpt lat="45.38981" lon="6.77481">
        <ele>2374</ele>
        <time>2021-10-02T14:02:39Z</time>
      </trkpt>
      <trkpt lat="45.38982" lon="6.7747">
        <ele>2371</ele>
        <time>2021-10-02T14:02:51Z</time>
      </trkpt>
      <trkpt lat="45.38979" lon="6.77463">
        <ele>2368</ele>
        <time>2021-10-02T14:04:24Z</time>
      </trkpt>
      <trkpt lat="45.38974" lon="6.77436">
        <ele>2360</ele>
        <time>2021-10-02T14:09:46Z</time>
      </trkpt>
      <trkpt lat="45.38991" lon="6.77425">
        <ele>2351</ele>
        <time>2021-10-02T14:10:32Z</time>
      </trkpt>
      <trkpt lat="45.38994" lon="6.77404">
        <ele>2346</ele>
        <time>2021-10-02T14:11:05Z</time>
      </trkpt>
      <trkpt lat="45.38987" lon="6.77383">
        <ele>2340</ele>
        <time>2021-10-02T14:11:36Z</time>
      </trkpt>
      <trkpt lat="45.38981" lon="6.77351">
        <ele>2332</ele>
        <time>2021-10-02T14:12:19Z</time>
      </trkpt>
      <trkpt lat="45.38968" lon="6.77327">
        <ele>2325</ele>
        <time>2021-10-02T14:12:50Z</time>
      </trkpt>
      <trkpt lat="45.38961" lon="6.77308">
        <ele>2318</ele>
        <time>2021-10-02T14:13:27Z</time>
      </trkpt>
      <trkpt lat="45.38957" lon="6.77288">
        <ele>2313</ele>
        <time>2021-10-02T14:13:54Z</time>
      </trkpt>
      <trkpt lat="45.38944" lon="6.77268">
        <ele>2309</ele>
        <time>2021-10-02T14:14:21Z</time>
      </trkpt>
      <trkpt lat="45.38985" lon="6.77274">
        <ele>2296</ele>
        <time>2021-10-02T14:15:35Z</time>
      </trkpt>
      <trkpt lat="45.39015" lon="6.77272">
        <ele>2292</ele>
        <time>2021-10-02T14:16:18Z</time>
      </trkpt>
      <trkpt lat="45.39034" lon="6.77236">
        <ele>2291</ele>
        <time>2021-10-02T14:17:20Z</time>
      </trkpt>
      <trkpt lat="45.39017" lon="6.7721">
        <ele>2285</ele>
        <time>2021-10-02T14:18:06Z</time>
      </trkpt>
      <trkpt lat="45.39009" lon="6.77176">
        <ele>2277</ele>
        <time>2021-10-02T14:18:56Z</time>
      </trkpt>
      <trkpt lat="45.38993" lon="6.77168">
        <ele>2273</ele>
        <time>2021-10-02T14:19:24Z</time>
      </trkpt>
      <trkpt lat="45.39" lon="6.77144">
        <ele>2266</ele>
        <time>2021-10-02T14:20:10Z</time>
      </trkpt>
      <trkpt lat="45.38993" lon="6.77126">
        <ele>2262</ele>
        <time>2021-10-02T14:20:53Z</time>
      </trkpt>
      <trkpt lat="45.38983" lon="6.77109">
        <ele>2257</ele>
        <time>2021-10-02T14:21:24Z</time>
      </trkpt>
      <trkpt lat="45.38973" lon="6.7709">
        <ele>2251</ele>
        <time>2021-10-02T14:22:14Z</time>
      </trkpt>
      <trkpt lat="45.38973" lon="6.77069">
        <ele>2249</ele>
        <time>2021-10-02T14:22:26Z</time>
      </trkpt>
      <trkpt lat="45.38973" lon="6.77042">
        <ele>2243</ele>
        <time>2021-10-02T14:22:55Z</time>
      </trkpt>
      <trkpt lat="45.38965" lon="6.77018">
        <ele>2239</ele>
        <time>2021-10-02T14:23:15Z</time>
      </trkpt>
      <trkpt lat="45.3895" lon="6.76979">
        <ele>2230</ele>
        <time>2021-10-02T14:24:00Z</time>
      </trkpt>
      <trkpt lat="45.38926" lon="6.76933">
        <ele>2224</ele>
        <time>2021-10-02T14:24:42Z</time>
      </trkpt>
      <trkpt lat="45.38907" lon="6.76901">
        <ele>2222</ele>
        <time>2021-10-02T14:25:11Z</time>
      </trkpt>
      <trkpt lat="45.38874" lon="6.76867">
        <ele>2216</ele>
        <time>2021-10-02T14:26:01Z</time>
      </trkpt>
      <trkpt lat="45.38856" lon="6.76843">
        <ele>2206</ele>
        <time>2021-10-02T14:26:58Z</time>
      </trkpt>
      <trkpt lat="45.3884" lon="6.76848">
        <ele>2203</ele>
        <time>2021-10-02T14:27:20Z</time>
      </trkpt>
      <trkpt lat="45.38817" lon="6.76834">
        <ele>2197</ele>
        <time>2021-10-02T14:27:58Z</time>
      </trkpt>
      <trkpt lat="45.38826" lon="6.76793">
        <ele>2189</ele>
        <time>2021-10-02T14:28:39Z</time>
      </trkpt>
      <trkpt lat="45.38845" lon="6.76722">
        <ele>2177</ele>
        <time>2021-10-02T14:29:40Z</time>
      </trkpt>
      <trkpt lat="45.38851" lon="6.7666">
        <ele>2170</ele>
        <time>2021-10-02T14:30:26Z</time>
      </trkpt>
      <trkpt lat="45.38854" lon="6.76613">
        <ele>2164</ele>
        <time>2021-10-02T14:31:07Z</time>
      </trkpt>
      <trkpt lat="45.38843" lon="6.7657">
        <ele>2158</ele>
        <time>2021-10-02T14:31:42Z</time>
      </trkpt>
      <trkpt lat="45.38842" lon="6.76529">
        <ele>2157</ele>
        <time>2021-10-02T14:32:07Z</time>
      </trkpt>
      <trkpt lat="45.38823" lon="6.76495">
        <ele>2153</ele>
        <time>2021-10-02T14:32:36Z</time>
      </trkpt>
      <trkpt lat="45.38798" lon="6.76469">
        <ele>2152</ele>
        <time>2021-10-02T14:33:06Z</time>
      </trkpt>
      <trkpt lat="45.3877" lon="6.76453">
        <ele>2148</ele>
        <time>2021-10-02T14:33:48Z</time>
      </trkpt>
      <trkpt lat="45.3874" lon="6.76449">
        <ele>2147</ele>
        <time>2021-10-02T14:34:18Z</time>
      </trkpt>
      <trkpt lat="45.38713" lon="6.76446">
        <ele>2139</ele>
        <time>2021-10-02T14:35:18Z</time>
      </trkpt>
      <trkpt lat="45.38695" lon="6.76409">
        <ele>2128</ele>
        <time>2021-10-02T14:36:10Z</time>
      </trkpt>
      <trkpt lat="45.38679" lon="6.76373">
        <ele>2118</ele>
        <time>2021-10-02T14:37:13Z</time>
      </trkpt>
      <trkpt lat="45.3866" lon="6.76334">
        <ele>2110</ele>
        <time>2021-10-02T14:38:05Z</time>
      </trkpt>
      <trkpt lat="45.38636" lon="6.76305">
        <ele>2103</ele>
        <time>2021-10-02T14:38:41Z</time>
      </trkpt>
      <trkpt lat="45.38619" lon="6.76263">
        <ele>2094</ele>
        <time>2021-10-02T14:39:30Z</time>
      </trkpt>
      <trkpt lat="45.38588" lon="6.76251">
        <ele>2088</ele>
        <time>2021-10-02T14:40:31Z</time>
      </trkpt>
      <trkpt lat="45.38567" lon="6.76212">
        <ele>2081</ele>
        <time>2021-10-02T14:41:31Z</time>
      </trkpt>
      <trkpt lat="45.38544" lon="6.76175">
        <ele>2076</ele>
        <time>2021-10-02T14:42:11Z</time>
      </trkpt>
      <trkpt lat="45.38524" lon="6.76143">
        <ele>2068</ele>
        <time>2021-10-02T14:43:12Z</time>
      </trkpt>
      <trkpt lat="45.38515" lon="6.76101">
        <ele>2060</ele>
        <time>2021-10-02T14:45:00Z</time>
      </trkpt>
      <trkpt lat="45.38488" lon="6.7608">
        <ele>2053</ele>
        <time>2021-10-02T14:46:08Z</time>
      </trkpt>
      <trkpt lat="45.38466" lon="6.76035">
        <ele>2048</ele>
        <time>2021-10-02T14:47:10Z</time>
      </trkpt>
      <trkpt lat="45.38446" lon="6.75996">
        <ele>2047</ele>
        <time>2021-10-02T14:47:55Z</time>
      </trkpt>
      <trkpt lat="45.3843" lon="6.75961">
        <ele>2046</ele>
        <time>2021-10-02T14:48:23Z</time>
      </trkpt>
      <trkpt lat="45.38403" lon="6.75912">
        <ele>2038</ele>
        <time>2021-10-02T14:49:22Z</time>
      </trkpt>
      <trkpt lat="45.38387" lon="6.75873">
        <ele>2032</ele>
        <time>2021-10-02T14:50:13Z</time>
      </trkpt>
      <trkpt lat="45.3838" lon="6.7583">
        <ele>2021</ele>
        <time>2021-10-02T14:51:07Z</time>
      </trkpt>
      <trkpt lat="45.38348" lon="6.75797">
        <ele>2014</ele>
        <time>2021-10-02T14:51:57Z</time>
      </trkpt>
      <trkpt lat="45.3832" lon="6.75799">
        <ele>2000</ele>
        <time>2021-10-02T14:53:14Z</time>
      </trkpt>
      <trkpt lat="45.38286" lon="6.75842">
        <ele>1997</ele>
        <time>2021-10-02T14:54:09Z</time>
      </trkpt>
      <trkpt lat="45.3826" lon="6.75855">
        <ele>1995</ele>
        <time>2021-10-02T14:54:50Z</time>
      </trkpt>
      <trkpt lat="45.38242" lon="6.75833">
        <ele>1994</ele>
        <time>2021-10-02T14:55:18Z</time>
      </trkpt>
      <trkpt lat="45.38222" lon="6.75804">
        <ele>1987</ele>
        <time>2021-10-02T14:57:25Z</time>
      </trkpt>
      <trkpt lat="45.38197" lon="6.75774">
        <ele>1988</ele>
        <time>2021-10-02T14:59:15Z</time>
      </trkpt>
      <trkpt lat="45.38178" lon="6.75731">
        <ele>1980</ele>
        <time>2021-10-02T15:00:03Z</time>
      </trkpt>
      <trkpt lat="45.38174" lon="6.75681">
        <ele>1974</ele>
        <time>2021-10-02T15:00:45Z</time>
      </trkpt>
      <trkpt lat="45.38162" lon="6.75639">
        <ele>1963</ele>
        <time>2021-10-02T15:01:44Z</time>
      </trkpt>
      <trkpt lat="45.38145" lon="6.75604">
        <ele>1957</ele>
        <time>2021-10-02T15:02:26Z</time>
      </trkpt>
      <trkpt lat="45.38127" lon="6.75568">
        <ele>1949</ele>
        <time>2021-10-02T15:03:30Z</time>
      </trkpt>
      <trkpt lat="45.38118" lon="6.75547">
        <ele>1943</ele>
        <time>2021-10-02T15:04:12Z</time>
      </trkpt>
      <trkpt lat="45.38123" lon="6.75526">
        <ele>1936</ele>
        <time>2021-10-02T15:04:48Z</time>
      </trkpt>
      <trkpt lat="45.38126" lon="6.75516">
        <ele>1931</ele>
        <time>2021-10-02T15:05:13Z</time>
      </trkpt>
      <trkpt lat="45.38124" lon="6.75508">
        <ele>1928</ele>
        <time>2021-10-02T15:05:31Z</time>
      </trkpt>
      <trkpt lat="45.38125" lon="6.755">
        <ele>1923</ele>
        <time>2021-10-02T15:05:55Z</time>
      </trkpt>
      <trkpt lat="45.3812" lon="6.75488">
        <ele>1921</ele>
        <time>2021-10-02T15:06:13Z</time>
      </trkpt>
      <trkpt lat="45.38115" lon="6.75484">
        <ele>1917</ele>
        <time>2021-10-02T15:06:31Z</time>
      </trkpt>
      <trkpt lat="45.38105" lon="6.75429">
        <ele>1906</ele>
        <time>2021-10-02T15:07:29Z</time>
      </trkpt>
      <trkpt lat="45.38102" lon="6.75411">
        <ele>1904</ele>
        <time>2021-10-02T15:07:50Z</time>
      </trkpt>
      <trkpt lat="45.38091" lon="6.75394">
        <ele>1900</ele>
        <time>2021-10-02T15:08:20Z</time>
      </trkpt>
      <trkpt lat="45.38075" lon="6.75384">
        <ele>1893</ele>
        <time>2021-10-02T15:08:51Z</time>
      </trkpt>
      <trkpt lat="45.38051" lon="6.75351">
        <ele>1886</ele>
        <time>2021-10-02T15:09:35Z</time>
      </trkpt>
      <trkpt lat="45.38035" lon="6.75361">
        <ele>1883</ele>
        <time>2021-10-02T15:10:27Z</time>
      </trkpt>
      <trkpt lat="45.38034" lon="6.7536">
        <ele>1875</ele>
        <time>2021-10-02T15:11:50Z</time>
      </trkpt>
      <trkpt lat="45.38033" lon="6.75336">
        <ele>1868</ele>
        <time>2021-10-02T15:12:28Z</time>
      </trkpt>
      <trkpt lat="45.38026" lon="6.75318">
        <ele>1857</ele>
        <time>2021-10-02T15:13:26Z</time>
      </trkpt>
      <trkpt lat="45.38023" lon="6.75294">
        <ele>1848</ele>
        <time>2021-10-02T15:14:20Z</time>
      </trkpt>
      <trkpt lat="45.38006" lon="6.75258">
        <ele>1837</ele>
        <time>2021-10-02T15:15:38Z</time>
      </trkpt>
      <trkpt lat="45.38005" lon="6.75203">
        <ele>1830</ele>
        <time>2021-10-02T15:16:20Z</time>
      </trkpt>
      <trkpt lat="45.38004" lon="6.75182">
        <ele>1829</ele>
        <time>2021-10-02T15:16:33Z</time>
      </trkpt>
      <trkpt lat="45.38011" lon="6.75161">
        <ele>1826</ele>
        <time>2021-10-02T15:17:13Z</time>
      </trkpt>
      <trkpt lat="45.38019" lon="6.75098">
        <ele>1819</ele>
        <time>2021-10-02T15:17:56Z</time>
      </trkpt>
      <trkpt lat="45.38024" lon="6.75077">
        <ele>1816</ele>
        <time>2021-10-02T15:18:12Z</time>
      </trkpt>
      <trkpt lat="45.38028" lon="6.75057">
        <ele>1811</ele>
        <time>2021-10-02T15:18:32Z</time>
      </trkpt>
      <trkpt lat="45.38037" lon="6.75038">
        <ele>1805</ele>
        <time>2021-10-02T15:19:00Z</time>
      </trkpt>
      <trkpt lat="45.38044" lon="6.75021">
        <ele>1799</ele>
        <time>2021-10-02T15:19:28Z</time>
      </trkpt>
      <trkpt lat="45.38067" lon="6.74999">
        <ele>1792</ele>
        <time>2021-10-02T15:20:03Z</time>
      </trkpt>
      <trkpt lat="45.38066" lon="6.74979">
        <ele>1786</ele>
        <time>2021-10-02T15:20:33Z</time>
      </trkpt>
      <trkpt lat="45.38068" lon="6.74957">
        <ele>1782</ele>
        <time>2021-10-02T15:21:52Z</time>
      </trkpt>
      <trkpt lat="45.38063" lon="6.74925">
        <ele>1779</ele>
        <time>2021-10-02T15:22:34Z</time>
      </trkpt>
      <trkpt lat="45.38081" lon="6.74898">
        <ele>1774</ele>
        <time>2021-10-02T15:23:02Z</time>
      </trkpt>
      <trkpt lat="45.38083" lon="6.74876">
        <ele>1771</ele>
        <time>2021-10-02T15:23:19Z</time>
      </trkpt>
      <trkpt lat="45.38104" lon="6.74836">
        <ele>1765</ele>
        <time>2021-10-02T15:23:55Z</time>
      </trkpt>
      <trkpt lat="45.38117" lon="6.74803">
        <ele>1760</ele>
        <time>2021-10-02T15:24:24Z</time>
      </trkpt>
      <trkpt lat="45.38132" lon="6.74779">
        <ele>1755</ele>
        <time>2021-10-02T15:24:52Z</time>
      </trkpt>
      <trkpt lat="45.38138" lon="6.74734">
        <ele>1749</ele>
        <time>2021-10-02T15:25:24Z</time>
      </trkpt>
      <trkpt lat="45.38139" lon="6.74683">
        <ele>1745</ele>
        <time>2021-10-02T15:25:59Z</time>
      </trkpt>
      <trkpt lat="45.38134" lon="6.74643">
        <ele>1742</ele>
        <time>2021-10-02T15:26:24Z</time>
      </trkpt>
      <trkpt lat="45.38127" lon="6.74625">
        <ele>1739</ele>
        <time>2021-10-02T15:26:35Z</time>
      </trkpt>
      <trkpt lat="45.38109" lon="6.74592">
        <ele>1736</ele>
        <time>2021-10-02T15:26:58Z</time>
      </trkpt>
      <trkpt lat="45.38097" lon="6.74578">
        <ele>1734</ele>
        <time>2021-10-02T15:27:11Z</time>
      </trkpt>
      <trkpt lat="45.38087" lon="6.74557">
        <ele>1733</ele>
        <time>2021-10-02T15:27:36Z</time>
      </trkpt>
      <trkpt lat="45.38078" lon="6.74492">
        <ele>1728</ele>
        <time>2021-10-02T15:28:17Z</time>
      </trkpt>
      <trkpt lat="45.38077" lon="6.74468">
        <ele>1727</ele>
        <time>2021-10-02T15:28:32Z</time>
      </trkpt>
      <trkpt lat="45.38093" lon="6.74404">
        <ele>1719</ele>
        <time>2021-10-02T15:29:18Z</time>
      </trkpt>
      <trkpt lat="45.38095" lon="6.74382">
        <ele>1716</ele>
        <time>2021-10-02T15:29:30Z</time>
      </trkpt>
      <trkpt lat="45.38091" lon="6.74362">
        <ele>1714</ele>
        <time>2021-10-02T15:29:42Z</time>
      </trkpt>
      <trkpt lat="45.38084" lon="6.74345">
        <ele>1711</ele>
        <time>2021-10-02T15:29:54Z</time>
      </trkpt>
      <trkpt lat="45.38075" lon="6.7428">
        <ele>1705</ele>
        <time>2021-10-02T15:30:32Z</time>
      </trkpt>
      <trkpt lat="45.38063" lon="6.74217">
        <ele>1698</ele>
        <time>2021-10-02T15:31:13Z</time>
      </trkpt>
      <trkpt lat="45.38058" lon="6.74197">
        <ele>1695</ele>
        <time>2021-10-02T15:31:26Z</time>
      </trkpt>
      <trkpt lat="45.38054" lon="6.74134">
        <ele>1689</ele>
        <time>2021-10-02T15:32:06Z</time>
      </trkpt>
      <trkpt lat="45.38053" lon="6.74092">
        <ele>1683</ele>
        <time>2021-10-02T15:32:33Z</time>
      </trkpt>
      <trkpt lat="45.38061" lon="6.74073">
        <ele>1681</ele>
        <time>2021-10-02T15:32:48Z</time>
      </trkpt>
      <trkpt lat="45.38071" lon="6.74058">
        <ele>1679</ele>
        <time>2021-10-02T15:33:00Z</time>
      </trkpt>
      <trkpt lat="45.38072" lon="6.74015">
        <ele>1676</ele>
        <time>2021-10-02T15:33:27Z</time>
      </trkpt>
      <trkpt lat="45.3806" lon="6.73978">
        <ele>1676</ele>
        <time>2021-10-02T15:33:52Z</time>
      </trkpt>
      <trkpt lat="45.38063" lon="6.73944">
        <ele>1672</ele>
        <time>2021-10-02T15:34:47Z</time>
      </trkpt>
      <trkpt lat="45.38074" lon="6.73908">
        <ele>1670</ele>
        <time>2021-10-02T15:35:09Z</time>
      </trkpt>
      <trkpt lat="45.38076" lon="6.73875">
        <ele>1669</ele>
        <time>2021-10-02T15:35:29Z</time>
      </trkpt>
      <trkpt lat="45.38077" lon="6.73858">
        <ele>1667</ele>
        <time>2021-10-02T15:35:41Z</time>
      </trkpt>
      <trkpt lat="45.38075" lon="6.73814">
        <ele>1665</ele>
        <time>2021-10-02T15:36:09Z</time>
      </trkpt>
      <trkpt lat="45.38077" lon="6.73803">
        <ele>1664</ele>
        <time>2021-10-02T15:36:18Z</time>
      </trkpt>
      <trkpt lat="45.38085" lon="6.73777">
        <ele>1663</ele>
        <time>2021-10-02T15:36:38Z</time>
      </trkpt>
      <trkpt lat="45.38085" lon="6.73765">
        <ele>1663</ele>
        <time>2021-10-02T15:36:43Z</time>
      </trkpt>
      <trkpt lat="45.38076" lon="6.73717">
        <ele>1660</ele>
        <time>2021-10-02T15:37:17Z</time>
      </trkpt>
      <trkpt lat="45.38065" lon="6.73683">
        <ele>1659</ele>
        <time>2021-10-02T15:37:37Z</time>
      </trkpt>
      <trkpt lat="45.3806" lon="6.73675">
        <ele>1659</ele>
        <time>2021-10-02T15:37:45Z</time>
      </trkpt>
      <trkpt lat="45.3806" lon="6.73668">
        <ele>1659</ele>
        <time>2021-10-02T15:37:50Z</time>
      </trkpt>
      <trkpt lat="45.38062" lon="6.7366">
        <ele>1658</ele>
        <time>2021-10-02T15:37:56Z</time>
      </trkpt>
      <trkpt lat="45.38065" lon="6.73652">
        <ele>1658</ele>
        <time>2021-10-02T15:38:01Z</time>
      </trkpt>
      <trkpt lat="45.38073" lon="6.73639">
        <ele>1658</ele>
        <time>2021-10-02T15:38:13Z</time>
      </trkpt>
      <trkpt lat="45.38077" lon="6.73633">
        <ele>1657</ele>
        <time>2021-10-02T15:38:18Z</time>
      </trkpt>
      <trkpt lat="45.38085" lon="6.73626">
        <ele>1656</ele>
        <time>2021-10-02T15:38:28Z</time>
      </trkpt>
      <trkpt lat="45.38091" lon="6.73618">
        <ele>1657</ele>
        <time>2021-10-02T15:38:35Z</time>
      </trkpt>
    </trkseg>
  </trk>
  <rte>
    <name><![CDATA[4 avr. 2019 à 23:11:12]]></name>
    <cmt><![CDATA[4 avr. 2019 à 23:11:12]]></cmt>
    <desc><![CDATA[{DC1}Heure de fin	: 
Durée totale	: 0h00:00
Moyenne globale	: -
Pente moyenne	: 0.00 %
Aire incluse	: 7.4932 ha
Détails par segments
distance  | durée    | vit.moy. | vit.max. | déniv. + | déniv -
   km     | hh:mn:ss |   km/h   |   km/h   |    m     |    m
     0.81 | 00:00:00 |      0.0 |      0.0 |        0 |        0{DC2}]]></desc>
      <rtept lat="45.60077" lon="6.18221">
        <ele>1608.6</ele>
      </rtept>
      <rtept lat="45.59468" lon="6.1822">
        <ele>1760.9</ele>
      </rtept>
      <rtept lat="45.59468" lon="6.1822">
        <ele>1760.9</ele>
      </rtept>
    </rte>
  <rte>
    <name><![CDATA[10 févr. 2019 à 15:16:12]]></name>
    <cmt><![CDATA[10 févr. 2019 à 15:16:12]]></cmt>
    <desc><![CDATA[{DC1}Heure de fin	: 00:09:21
Durée totale	: -17690439h43:48
Moyenne globale	: -
Pente moyenne	: 7.00 %
Aire incluse	: 221.0936 ha
Détails par segments
distance  | durée    | vit.moy. | vit.max. | déniv. + | déniv -
   km     | hh:mn:ss |   km/h   |   km/h   |    m     |    m
     7.48 | 00:00:00 |      0.0 |      0.0 |        0 |        0{DC2}]]></desc>
      <rtept lat="45.55203" lon="5.93805">
        <ele>376</ele>
      </rtept>
      <rtept lat="45.55177" lon="5.93873">
        <ele>369</ele>
      </rtept>
      <rtept lat="45.55176" lon="5.93942">
        <ele>367</ele>
      </rtept>
      <rtept lat="45.55105" lon="5.93942">
        <ele>367</ele>
      </rtept>
      <rtept lat="45.54993" lon="5.93908">
        <ele>371</ele>
      </rtept>
      <rtept lat="45.54929" lon="5.94099">
        <ele>370</ele>
      </rtept>
      <rtept lat="45.54908" lon="5.94204">
        <ele>367</ele>
      </rtept>
      <rtept lat="45.54991" lon="5.94287">
        <ele>365</ele>
      </rtept>
      <rtept lat="45.5506" lon="5.94384">
        <ele>361</ele>
      </rtept>
      <rtept lat="45.55147" lon="5.94384">
        <ele>357</ele>
      </rtept>
      <rtept lat="45.55129" lon="5.94607">
        <ele>358</ele>
      </rtept>
      <rtept lat="45.55029" lon="5.94809">
        <ele>355</ele>
      </rtept>
      <rtept lat="45.54884" lon="5.94886">
        <ele>346</ele>
      </rtept>
      <rtept lat="45.5477" lon="5.94931">
        <ele>342</ele>
      </rtept>
      <rtept lat="45.5468" lon="5.95004">
        <ele>339</ele>
      </rtept>
      <rtept lat="45.54596" lon="5.95133">
        <ele>340</ele>
      </rtept>
      <rtept lat="45.54446" lon="5.95195">
        <ele>343</ele>
      </rtept>
      <rtept lat="45.543" lon="5.95262">
        <ele>344</ele>
      </rtept>
      <rtept lat="45.54156" lon="5.95212">
        <ele>337</ele>
      </rtept>
      <rtept lat="45.54041" lon="5.95204">
        <ele>338</ele>
      </rtept>
      <rtept lat="45.53917" lon="5.95141">
        <ele>343</ele>
      </rtept>
      <rtept lat="45.53844" lon="5.95135">
        <ele>347</ele>
      </rtept>
      <rtept lat="45.53765" lon="5.9503">
        <ele>349</ele>
      </rtept>
      <rtept lat="45.5381" lon="5.94993">
        <ele>352</ele>
      </rtept>
      <rtept lat="45.53781" lon="5.94901">
        <ele>358</ele>
      </rtept>
      <rtept lat="45.53711" lon="5.94845">
        <ele>365</ele>
      </rtept>
      <rtept lat="45.53702" lon="5.94764">
        <ele>369</ele>
      </rtept>
      <rtept lat="45.53817" lon="5.94807">
        <ele>376</ele>
      </rtept>
      <rtept lat="45.53865" lon="5.94633">
        <ele>389</ele>
      </rtept>
      <rtept lat="45.53778" lon="5.94491">
        <ele>408</ele>
      </rtept>
      <rtept lat="45.53757" lon="5.94371">
        <ele>425</ele>
      </rtept>
      <rtept lat="45.53775" lon="5.94279">
        <ele>434</ele>
      </rtept>
      <rtept lat="45.53726" lon="5.94227">
        <ele>442</ele>
      </rtept>
      <rtept lat="45.53572" lon="5.94146">
        <ele>468</ele>
      </rtept>
      <rtept lat="45.53664" lon="5.94039">
        <ele>483</ele>
      </rtept>
      <rtept lat="45.53532" lon="5.93983">
        <ele>505</ele>
      </rtept>
      <rtept lat="45.53416" lon="5.93985">
        <ele>516</ele>
      </rtept>
      <rtept lat="45.5355" lon="5.93869">
        <ele>532</ele>
      </rtept>
      <rtept lat="45.5359" lon="5.93845">
        <ele>537</ele>
      </rtept>
      <rtept lat="45.5355" lon="5.93802">
        <ele>544</ele>
      </rtept>
      <rtept lat="45.53724" lon="5.93554">
        <ele>587</ele>
      </rtept>
      <rtept lat="45.53691" lon="5.93339">
        <ele>592</ele>
      </rtept>
      <rtept lat="45.5376" lon="5.93178">
        <ele>575</ele>
      </rtept>
      <rtept lat="45.53843" lon="5.93069">
        <ele>555</ele>
      </rtept>
      <rtept lat="45.53939" lon="5.93157">
        <ele>541</ele>
      </rtept>
      <rtept lat="45.54068" lon="5.93234">
        <ele>522</ele>
      </rtept>
      <rtept lat="45.54219" lon="5.93247">
        <ele>514</ele>
      </rtept>
      <rtept lat="45.54355" lon="5.93232">
        <ele>512</ele>
      </rtept>
      <rtept lat="45.54489" lon="5.9326">
        <ele>508</ele>
      </rtept>
      <rtept lat="45.54636" lon="5.93249">
        <ele>510</ele>
      </rtept>
      <rtept lat="45.54758" lon="5.93249">
        <ele>510</ele>
      </rtept>
      <rtept lat="45.54818" lon="5.93298">
        <ele>507</ele>
      </rtept>
      <rtept lat="45.54796" lon="5.93418">
        <ele>496</ele>
      </rtept>
      <rtept lat="45.5491" lon="5.93433">
        <ele>483</ele>
      </rtept>
      <rtept lat="45.55126" lon="5.9341">
        <ele>463</ele>
      </rtept>
      <rtept lat="45.55256" lon="5.93453">
        <ele>444</ele>
      </rtept>
      <rtept lat="45.55329" lon="5.93558">
        <ele>430</ele>
      </rtept>
      <rtept lat="45.55222" lon="5.93642">
        <ele>415</ele>
      </rtept>
      <rtept lat="45.55195" lon="5.93811">
        <ele>375</ele>
      </rtept>
    </rte>
  <rte>
    <name><![CDATA[10 févr. 2019 à 15:15:48]]></name>
    <cmt><![CDATA[10 févr. 2019 à 15:15:48]]></cmt>
    <desc><![CDATA[{DC1}Heure de fin	: 00:09:21
Durée totale	: -17690439h44:12
Moyenne globale	: -
Pente moyenne	: nan %
Aire incluse	: 0.0000 ha
Détails par segments
distance  | durée    | vit.moy. | vit.max. | déniv. + | déniv -
   km     | hh:mn:ss |   km/h   |   km/h   |    m     |    m
     0.00 | 00:00:00 |      0.0 |      0.0 |        0 |        0{DC2}]]></desc>
      <rtept lat="45.5175" lon="5.93483">
        <ele>732.3</ele>
      </rtept>
    </rte>
  <rte>
    <name><![CDATA[10 févr. 2019 à 15:06:08]]></name>
    <cmt><![CDATA[10 févr. 2019 à 15:06:08]]></cmt>
    <desc><![CDATA[{DC1}Heure de fin	: 
Durée totale	: 0h00:00
Moyenne globale	: -
Pente moyenne	: 8.03 %
Aire incluse	: 204.0794 ha
Détails par segments
distance  | durée    | vit.moy. | vit.max. | déniv. + | déniv -
   km     | hh:mn:ss |   km/h   |   km/h   |    m     |    m
    12.88 | 00:00:00 |      0.0 |      0.0 |        0 |        0{DC2}]]></desc>
      <rtept lat="45.5509" lon="5.9394">
        <ele>368</ele>
      </rtept>
      <rtept lat="45.55217" lon="5.93791">
        <ele>377</ele>
      </rtept>
    </rte>
  <rte>
    <name><![CDATA[10 févr. 2019 à 14:22:06]]></name>
    <cmt><![CDATA[10 févr. 2019 à 14:22:06]]></cmt>
    <desc><![CDATA[{DC1}Heure de fin	: 00:09:21
Durée totale	: -17690438h37:54
Moyenne globale	: -
Pente moyenne	: 5.62 %
Aire incluse	: 5.7967 ha
Détails par segments
distance  | durée    | vit.moy. | vit.max. | déniv. + | déniv -
   km     | hh:mn:ss |   km/h   |   km/h   |    m     |    m
     3.30 | 00:00:00 |      0.0 |      0.0 |        0 |        0{DC2}]]></desc>
      <rtept lat="45.55169" lon="5.93089">
        <ele>415</ele>
      </rtept>
      <rtept lat="45.5518" lon="5.93905">
        <ele>366</ele>
      </rtept>
    </rte>
  <rte>
    <name><![CDATA[10 févr. 2019 à 09:50:45]]></name>
    <cmt><![CDATA[10 févr. 2019 à 09:50:45]]></cmt>
    <desc><![CDATA[{DC1}Heure de fin	: 00:09:21
Durée totale	: -17690433h09:14
Moyenne globale	: -
Pente moyenne	: 0.00 %
Aire incluse	: 50.7119 ha
Détails par segments
distance  | durée    | vit.moy. | vit.max. | déniv. + | déniv -
   km     | hh:mn:ss |   km/h   |   km/h   |    m     |    m
     4.33 | 00:00:00 |      0.0 |      0.0 |        0 |        0{DC2}]]></desc>
      <rtept lat="45.5503" lon="5.93918">
        <ele>373.6</ele>
      </rtept>
      <rtept lat="45.55191" lon="5.93893">
        <ele>366.7</ele>
      </rtept>
    </rte>
  <rte>
    <name><![CDATA[10 févr. 2019 à 09:07:08]]></name>
    <cmt><![CDATA[10 févr. 2019 à 09:07:08]]></cmt>
    <desc><![CDATA[{DC1}Heure de fin	: 00:09:21
Durée totale	: -17690433h52:52
Moyenne globale	: -
Pente moyenne	: nan %
Aire incluse	: 0.0000 ha
Détails par segments
distance  | durée    | vit.moy. | vit.max. | déniv. + | déniv -
   km     | hh:mn:ss |   km/h   |   km/h   |    m     |    m
     0.00 | 00:00:00 |      0.0 |      0.0 |        0 |        0{DC2}]]></desc>
      <rtept lat="45.55102" lon="5.93919">
        <ele>370.1</ele>
      </rtept>
    </rte>
  <rte>
    <name><![CDATA[10 févr. 2019 à 09:02:25]]></name>
    <cmt><![CDATA[10 févr. 2019 à 09:02:25]]></cmt>
    <desc><![CDATA[{DC1}Heure de fin	: 00:09:21
Durée totale	: -17690433h57:35
Moyenne globale	: -
Pente moyenne	: nan %
Aire incluse	: 0.0000 ha
Détails par segments
distance  | durée    | vit.moy. | vit.max. | déniv. + | déniv -
   km     | hh:mn:ss |   km/h   |   km/h   |    m     |    m
     0.00 | 00:00:00 |      0.0 |      0.0 |        0 |        0{DC2}]]></desc>
      <rtept lat="45.55207" lon="5.93813">
        <ele>375.2</ele>
      </rtept>
    </rte>
  <rte>
    <name><![CDATA[10 févr. 2019 à 09:00:27]]></name>
    <cmt><![CDATA[10 févr. 2019 à 09:00:27]]></cmt>
    <desc><![CDATA[{DC1}Heure de fin	: 00:09:21
Durée totale	: -17690433h59:32
Moyenne globale	: -
Pente moyenne	: nan %
Aire incluse	: 0.0000 ha
Détails par segments
distance  | durée    | vit.moy. | vit.max. | déniv. + | déniv -
   km     | hh:mn:ss |   km/h   |   km/h   |    m     |    m
     0.00 | 00:00:00 |      0.0 |      0.0 |        0 |        0{DC2}]]></desc>
      <rtept lat="45.55244" lon="5.93858">
        <ele>366.6</ele>
      </rtept>
    </rte>
</gpx>